<?xml version="1.0" encoding="utf-8"?>
<gpx xmlns:xsi="http://www.w3.org/2001/XMLSchema-instance" xmlns:xsd="http://www.w3.org/2001/XMLSchema" version="1.1" creator="Shapelink.com" xmlns="http://www.topografix.com/GPX/1/1" xmlns:gpxtpx="http://www.garmin.com/xmlschemas/TrackPointExtension/v1">
  <metadata>
    <name>Cykling 11.53 km, 2013-05-04</name>
    <desc></desc>
    <author><name>Alexander Engvall</name></author> 
    <time>2013-05-04T18:53:17Z</time>
  </metadata>
  <trk>
    <name>Cykling 11.53 km, 2013-05-04</name>
    <trkseg>
      <trkpt lat="59.4586823536" lon="17.804594437">
        <ele>52.6</ele>
        <time>2013-05-04T18:53:17Z</time>
      </trkpt>
      <trkpt lat="59.4586166395" lon="17.80461338">
        <ele>53.2</ele>
        <time>2013-05-04T18:53:18Z</time>
      </trkpt>
      <trkpt lat="59.4585655938" lon="17.8046105302">
        <ele>53.2</ele>
        <time>2013-05-04T18:53:19Z</time>
      </trkpt>
      <trkpt lat="59.4583992969" lon="17.8045582271">
        <ele>53.2</ele>
        <time>2013-05-04T18:53:22Z</time>
      </trkpt>
      <trkpt lat="59.4582061779" lon="17.8045087739">
        <ele>53.2</ele>
        <time>2013-05-04T18:53:25Z</time>
      </trkpt>
      <trkpt lat="59.4580817905" lon="17.8044825386">
        <ele>53.2</ele>
        <time>2013-05-04T18:53:27Z</time>
      </trkpt>
      <trkpt lat="59.4578641964" lon="17.8044929321">
        <ele>53.2</ele>
        <time>2013-05-04T18:53:31Z</time>
      </trkpt>
      <trkpt lat="59.4578171739" lon="17.8045252863">
        <ele>53.2</ele>
        <time>2013-05-04T18:53:32Z</time>
      </trkpt>
      <trkpt lat="59.4575060378" lon="17.8048420383">
        <ele>53.2</ele>
        <time>2013-05-04T18:53:39Z</time>
      </trkpt>
      <trkpt lat="59.4574201233" lon="17.8049473988">
        <ele>53.6</ele>
        <time>2013-05-04T18:53:41Z</time>
      </trkpt>
      <trkpt lat="59.457379974" lon="17.8050100116">
        <ele>54</ele>
        <time>2013-05-04T18:53:42Z</time>
      </trkpt>
      <trkpt lat="59.4573409143" lon="17.8050758095">
        <ele>54.6</ele>
        <time>2013-05-04T18:53:43Z</time>
      </trkpt>
      <trkpt lat="59.457304956" lon="17.8051458822">
        <ele>55</ele>
        <time>2013-05-04T18:53:44Z</time>
      </trkpt>
      <trkpt lat="59.4572680756" lon="17.8052178827">
        <ele>55.4</ele>
        <time>2013-05-04T18:53:45Z</time>
      </trkpt>
      <trkpt lat="59.4571125914" lon="17.8055091537">
        <ele>55.4</ele>
        <time>2013-05-04T18:53:49Z</time>
      </trkpt>
      <trkpt lat="59.4570617971" lon="17.8055690005">
        <ele>55.4</ele>
        <time>2013-05-04T18:53:50Z</time>
      </trkpt>
      <trkpt lat="59.4568910578" lon="17.805537736">
        <ele>55.4</ele>
        <time>2013-05-04T18:53:53Z</time>
      </trkpt>
      <trkpt lat="59.4568386709" lon="17.8054982572">
        <ele>55.4</ele>
        <time>2013-05-04T18:53:54Z</time>
      </trkpt>
      <trkpt lat="59.456734903" lon="17.8054149411">
        <ele>55.4</ele>
        <time>2013-05-04T18:53:56Z</time>
      </trkpt>
      <trkpt lat="59.4565296302" lon="17.8052298688">
        <ele>55.4</ele>
        <time>2013-05-04T18:54:00Z</time>
      </trkpt>
      <trkpt lat="59.4561816138" lon="17.8049746399">
        <ele>55.4</ele>
        <time>2013-05-04T18:54:06Z</time>
      </trkpt>
      <trkpt lat="59.4558501934" lon="17.8047087661">
        <ele>55.4</ele>
        <time>2013-05-04T18:54:12Z</time>
      </trkpt>
      <trkpt lat="59.4557951243" lon="17.8046557925">
        <ele>55.4</ele>
        <time>2013-05-04T18:54:13Z</time>
      </trkpt>
      <trkpt lat="59.455556324" lon="17.8044311575">
        <ele>55</ele>
        <time>2013-05-04T18:54:17Z</time>
      </trkpt>
      <trkpt lat="59.455493795" lon="17.8043881584">
        <ele>54.6</ele>
        <time>2013-05-04T18:54:18Z</time>
      </trkpt>
      <trkpt lat="59.4554297573" lon="17.8043527868">
        <ele>54.2</ele>
        <time>2013-05-04T18:54:19Z</time>
      </trkpt>
      <trkpt lat="59.4553634565" lon="17.8043247912">
        <ele>53.8</ele>
        <time>2013-05-04T18:54:20Z</time>
      </trkpt>
      <trkpt lat="59.4552948926" lon="17.8043024954">
        <ele>53.2</ele>
        <time>2013-05-04T18:54:21Z</time>
      </trkpt>
      <trkpt lat="59.4552244008" lon="17.8042888329">
        <ele>53.2</ele>
        <time>2013-05-04T18:54:22Z</time>
      </trkpt>
      <trkpt lat="59.4551524003" lon="17.804286905">
        <ele>53.2</ele>
        <time>2013-05-04T18:54:23Z</time>
      </trkpt>
      <trkpt lat="59.4548640629" lon="17.8043589894">
        <ele>52.8</ele>
        <time>2013-05-04T18:54:27Z</time>
      </trkpt>
      <trkpt lat="59.4547978459" lon="17.804398552">
        <ele>52.4</ele>
        <time>2013-05-04T18:54:28Z</time>
      </trkpt>
      <trkpt lat="59.4547339758" lon="17.8044430598">
        <ele>51.4</ele>
        <time>2013-05-04T18:54:29Z</time>
      </trkpt>
      <trkpt lat="59.4546721174" lon="17.8044951953">
        <ele>51</ele>
        <time>2013-05-04T18:54:30Z</time>
      </trkpt>
      <trkpt lat="59.4545513342" lon="17.8046261205">
        <ele>51</ele>
        <time>2013-05-04T18:54:32Z</time>
      </trkpt>
      <trkpt lat="59.4543170601" lon="17.8049779089">
        <ele>51</ele>
        <time>2013-05-04T18:54:37Z</time>
      </trkpt>
      <trkpt lat="59.4539946922" lon="17.8054913003">
        <ele>51</ele>
        <time>2013-05-04T18:54:44Z</time>
      </trkpt>
      <trkpt lat="59.4535963005" lon="17.806186998">
        <ele>51</ele>
        <time>2013-05-04T18:54:53Z</time>
      </trkpt>
      <trkpt lat="59.4534572448" lon="17.8064145665">
        <ele>51</ele>
        <time>2013-05-04T18:54:55Z</time>
      </trkpt>
      <trkpt lat="59.453226072" lon="17.8067710487">
        <ele>51</ele>
        <time>2013-05-04T18:55:01Z</time>
      </trkpt>
      <trkpt lat="59.4530814004" lon="17.8069862121">
        <ele>50.6</ele>
        <time>2013-05-04T18:55:04Z</time>
      </trkpt>
      <trkpt lat="59.4530316957" lon="17.8070560333">
        <ele>50</ele>
        <time>2013-05-04T18:55:05Z</time>
      </trkpt>
      <trkpt lat="59.4529809014" lon="17.8071283691">
        <ele>49.6</ele>
        <time>2013-05-04T18:55:06Z</time>
      </trkpt>
      <trkpt lat="59.452931532" lon="17.8072088354">
        <ele>49.2</ele>
        <time>2013-05-04T18:55:07Z</time>
      </trkpt>
      <trkpt lat="59.4528832523" lon="17.8072939117">
        <ele>48.8</ele>
        <time>2013-05-04T18:55:08Z</time>
      </trkpt>
      <trkpt lat="59.4525005347" lon="17.8080063732">
        <ele>48.8</ele>
        <time>2013-05-04T18:55:16Z</time>
      </trkpt>
      <trkpt lat="59.4521048252" lon="17.8087604927">
        <ele>48.8</ele>
        <time>2013-05-04T18:55:25Z</time>
      </trkpt>
      <trkpt lat="59.4517335909" lon="17.8095373272">
        <ele>48.8</ele>
        <time>2013-05-04T18:55:34Z</time>
      </trkpt>
      <trkpt lat="59.4514185153" lon="17.8102279119">
        <ele>48.8</ele>
        <time>2013-05-04T18:55:42Z</time>
      </trkpt>
      <trkpt lat="59.4511041102" lon="17.8109442291">
        <ele>48.8</ele>
        <time>2013-05-04T18:55:50Z</time>
      </trkpt>
      <trkpt lat="59.4507562613" lon="17.8117591174">
        <ele>48.8</ele>
        <time>2013-05-04T18:55:59Z</time>
      </trkpt>
      <trkpt lat="59.4505473844" lon="17.8123344511">
        <ele>48.8</ele>
        <time>2013-05-04T18:56:05Z</time>
      </trkpt>
      <trkpt lat="59.4502532635" lon="17.8130719744">
        <ele>48.8</ele>
        <time>2013-05-04T18:56:13Z</time>
      </trkpt>
      <trkpt lat="59.4499473242" lon="17.8139285208">
        <ele>48.8</ele>
        <time>2013-05-04T18:56:22Z</time>
      </trkpt>
      <trkpt lat="59.4497488408" lon="17.8145543134">
        <ele>48.8</ele>
        <time>2013-05-04T18:56:28Z</time>
      </trkpt>
      <trkpt lat="59.4497110384" lon="17.8146720791">
        <ele>48.8</ele>
        <time>2013-05-04T18:56:29Z</time>
      </trkpt>
      <trkpt lat="59.4495952844" lon="17.815006014">
        <ele>49.6</ele>
        <time>2013-05-04T18:56:32Z</time>
      </trkpt>
      <trkpt lat="59.4495530396" lon="17.8151145596">
        <ele>50</ele>
        <time>2013-05-04T18:56:33Z</time>
      </trkpt>
      <trkpt lat="59.4495142314" lon="17.8152215965">
        <ele>50.4</ele>
        <time>2013-05-04T18:56:34Z</time>
      </trkpt>
      <trkpt lat="59.4494796142" lon="17.8153282981">
        <ele>50.8</ele>
        <time>2013-05-04T18:56:35Z</time>
      </trkpt>
      <trkpt lat="59.4494502775" lon="17.8154409508">
        <ele>50.8</ele>
        <time>2013-05-04T18:56:36Z</time>
      </trkpt>
      <trkpt lat="59.4492348627" lon="17.8161929749">
        <ele>50.8</ele>
        <time>2013-05-04T18:56:43Z</time>
      </trkpt>
      <trkpt lat="59.4490538975" lon="17.8169179254">
        <ele>50.8</ele>
        <time>2013-05-04T18:56:50Z</time>
      </trkpt>
      <trkpt lat="59.4489915361" lon="17.8172071848">
        <ele>51.2</ele>
        <time>2013-05-04T18:56:53Z</time>
      </trkpt>
      <trkpt lat="59.4489723416" lon="17.8172981284">
        <ele>51.6</ele>
        <time>2013-05-04T18:56:54Z</time>
      </trkpt>
      <trkpt lat="59.4489547396" lon="17.8173882338">
        <ele>52</ele>
        <time>2013-05-04T18:56:55Z</time>
      </trkpt>
      <trkpt lat="59.448936467" lon="17.8174792613">
        <ele>52.8</ele>
        <time>2013-05-04T18:56:56Z</time>
      </trkpt>
      <trkpt lat="59.4488059609" lon="17.8182371527">
        <ele>52.8</ele>
        <time>2013-05-04T18:57:04Z</time>
      </trkpt>
      <trkpt lat="59.4487772948" lon="17.8184149328">
        <ele>53.2</ele>
        <time>2013-05-04T18:57:06Z</time>
      </trkpt>
      <trkpt lat="59.4487641352" lon="17.8185096482">
        <ele>53.8</ele>
        <time>2013-05-04T18:57:07Z</time>
      </trkpt>
      <trkpt lat="59.4487506403" lon="17.8186054534">
        <ele>54.2</ele>
        <time>2013-05-04T18:57:08Z</time>
      </trkpt>
      <trkpt lat="59.4487379836" lon="17.8187015099">
        <ele>54.6</ele>
        <time>2013-05-04T18:57:09Z</time>
      </trkpt>
      <trkpt lat="59.4487270034" lon="17.8187998296">
        <ele>55</ele>
        <time>2013-05-04T18:57:10Z</time>
      </trkpt>
      <trkpt lat="59.4487028635" lon="17.8189981454">
        <ele>55</ele>
        <time>2013-05-04T18:57:12Z</time>
      </trkpt>
      <trkpt lat="59.4486309468" lon="17.8197009677">
        <ele>55.6</ele>
        <time>2013-05-04T18:57:19Z</time>
      </trkpt>
      <trkpt lat="59.4486199665" lon="17.8198067473">
        <ele>56</ele>
        <time>2013-05-04T18:57:20Z</time>
      </trkpt>
      <trkpt lat="59.4486087347" lon="17.8199084197">
        <ele>57</ele>
        <time>2013-05-04T18:57:21Z</time>
      </trkpt>
      <trkpt lat="59.4485987603" lon="17.8200067394">
        <ele>57.4</ele>
        <time>2013-05-04T18:57:22Z</time>
      </trkpt>
      <trkpt lat="59.4485669091" lon="17.8205150178">
        <ele>57.4</ele>
        <time>2013-05-04T18:57:27Z</time>
      </trkpt>
      <trkpt lat="59.4485379915" lon="17.8213596619">
        <ele>57.4</ele>
        <time>2013-05-04T18:57:35Z</time>
      </trkpt>
      <trkpt lat="59.4485400032" lon="17.8221025497">
        <ele>57.4</ele>
        <time>2013-05-04T18:57:42Z</time>
      </trkpt>
      <trkpt lat="59.4485602874" lon="17.8229428351">
        <ele>57.4</ele>
        <time>2013-05-04T18:57:50Z</time>
      </trkpt>
      <trkpt lat="59.4486091538" lon="17.8238339988">
        <ele>57.4</ele>
        <time>2013-05-04T18:57:58Z</time>
      </trkpt>
      <trkpt lat="59.4486112493" lon="17.8239439693">
        <ele>57.4</ele>
        <time>2013-05-04T18:57:59Z</time>
      </trkpt>
      <trkpt lat="59.4486042085" lon="17.8240489945">
        <ele>57.4</ele>
        <time>2013-05-04T18:58:00Z</time>
      </trkpt>
      <trkpt lat="59.448546541" lon="17.8242248468">
        <ele>57.4</ele>
        <time>2013-05-04T18:58:02Z</time>
      </trkpt>
      <trkpt lat="59.4484030429" lon="17.82435485">
        <ele>57.4</ele>
        <time>2013-05-04T18:58:05Z</time>
      </trkpt>
      <trkpt lat="59.4479722971" lon="17.8246735299">
        <ele>57.4</ele>
        <time>2013-05-04T18:58:13Z</time>
      </trkpt>
      <trkpt lat="59.4475112926" lon="17.8250033576">
        <ele>57.4</ele>
        <time>2013-05-04T18:58:21Z</time>
      </trkpt>
      <trkpt lat="59.4470616875" lon="17.8252471871">
        <ele>57.4</ele>
        <time>2013-05-04T18:58:29Z</time>
      </trkpt>
      <trkpt lat="59.4466103221" lon="17.825397726">
        <ele>57.4</ele>
        <time>2013-05-04T18:58:37Z</time>
      </trkpt>
      <trkpt lat="59.4462864455" lon="17.8254579919">
        <ele>57.4</ele>
        <time>2013-05-04T18:58:43Z</time>
      </trkpt>
      <trkpt lat="59.4458459767" lon="17.8254614285">
        <ele>57.4</ele>
        <time>2013-05-04T18:58:51Z</time>
      </trkpt>
      <trkpt lat="59.4457890636" lon="17.8254545553">
        <ele>57.4</ele>
        <time>2013-05-04T18:58:52Z</time>
      </trkpt>
      <trkpt lat="59.4453936055" lon="17.8253999053">
        <ele>57.4</ele>
        <time>2013-05-04T18:58:59Z</time>
      </trkpt>
      <trkpt lat="59.4452170827" lon="17.8253766875">
        <ele>57.4</ele>
        <time>2013-05-04T18:59:02Z</time>
      </trkpt>
      <trkpt lat="59.4450408952" lon="17.8253195229">
        <ele>57.4</ele>
        <time>2013-05-04T18:59:05Z</time>
      </trkpt>
      <trkpt lat="59.4447382248" lon="17.8252411521">
        <ele>57.8</ele>
        <time>2013-05-04T18:59:10Z</time>
      </trkpt>
      <trkpt lat="59.4446767016" lon="17.8252253942">
        <ele>58.2</ele>
        <time>2013-05-04T18:59:11Z</time>
      </trkpt>
      <trkpt lat="59.4446178607" lon="17.8252108097">
        <ele>58.6</ele>
        <time>2013-05-04T18:59:12Z</time>
      </trkpt>
      <trkpt lat="59.4445637974" lon="17.8251994941">
        <ele>59</ele>
        <time>2013-05-04T18:59:13Z</time>
      </trkpt>
      <trkpt lat="59.444508896" lon="17.8251887653">
        <ele>59.4</ele>
        <time>2013-05-04T18:59:14Z</time>
      </trkpt>
      <trkpt lat="59.4442382444" lon="17.8251362946">
        <ele>59.4</ele>
        <time>2013-05-04T18:59:19Z</time>
      </trkpt>
      <trkpt lat="59.4438468935" lon="17.8250852488">
        <ele>59.4</ele>
        <time>2013-05-04T18:59:26Z</time>
      </trkpt>
      <trkpt lat="59.443284468" lon="17.8251186926">
        <ele>59.4</ele>
        <time>2013-05-04T18:59:36Z</time>
      </trkpt>
      <trkpt lat="59.44283436" lon="17.8251850772">
        <ele>59.4</ele>
        <time>2013-05-04T18:59:44Z</time>
      </trkpt>
      <trkpt lat="59.4425471961" lon="17.8252543117">
        <ele>59.4</ele>
        <time>2013-05-04T18:59:49Z</time>
      </trkpt>
      <trkpt lat="59.4424314421" lon="17.8252961374">
        <ele>59.4</ele>
        <time>2013-05-04T18:59:51Z</time>
      </trkpt>
      <trkpt lat="59.4421219823" lon="17.8254304993">
        <ele>59</ele>
        <time>2013-05-04T18:59:56Z</time>
      </trkpt>
      <trkpt lat="59.4420592857" lon="17.8254578242">
        <ele>58.6</ele>
        <time>2013-05-04T18:59:57Z</time>
      </trkpt>
      <trkpt lat="59.4419970082" lon="17.8254868256">
        <ele>58.2</ele>
        <time>2013-05-04T18:59:58Z</time>
      </trkpt>
      <trkpt lat="59.4419357365" lon="17.8255164137">
        <ele>57.8</ele>
        <time>2013-05-04T18:59:59Z</time>
      </trkpt>
      <trkpt lat="59.4418733752" lon="17.8255491031">
        <ele>57.4</ele>
        <time>2013-05-04T19:00:00Z</time>
      </trkpt>
      <trkpt lat="59.4416313059" lon="17.8257034977">
        <ele>57.4</ele>
        <time>2013-05-04T19:00:04Z</time>
      </trkpt>
      <trkpt lat="59.4415209163" lon="17.8257716426">
        <ele>57.4</ele>
        <time>2013-05-04T19:00:06Z</time>
      </trkpt>
      <trkpt lat="59.4411090297" lon="17.8260075092">
        <ele>57.4</ele>
        <time>2013-05-04T19:00:13Z</time>
      </trkpt>
      <trkpt lat="59.4406379669" lon="17.826274808">
        <ele>57.4</ele>
        <time>2013-05-04T19:00:21Z</time>
      </trkpt>
      <trkpt lat="59.4401896191" lon="17.8264763927">
        <ele>57.4</ele>
        <time>2013-05-04T19:00:29Z</time>
      </trkpt>
      <trkpt lat="59.4397501561" lon="17.8265854413">
        <ele>57.4</ele>
        <time>2013-05-04T19:00:37Z</time>
      </trkpt>
      <trkpt lat="59.4392737289" lon="17.826580915">
        <ele>57.4</ele>
        <time>2013-05-04T19:00:45Z</time>
      </trkpt>
      <trkpt lat="59.4388766783" lon="17.826474884">
        <ele>57.4</ele>
        <time>2013-05-04T19:00:52Z</time>
      </trkpt>
      <trkpt lat="59.4387117225" lon="17.8264069068">
        <ele>57.4</ele>
        <time>2013-05-04T19:00:55Z</time>
      </trkpt>
      <trkpt lat="59.4386009976" lon="17.8264518338">
        <ele>57.4</ele>
        <time>2013-05-04T19:00:57Z</time>
      </trkpt>
      <trkpt lat="59.4384610199" lon="17.8267603715">
        <ele>57.4</ele>
        <time>2013-05-04T19:01:01Z</time>
      </trkpt>
      <trkpt lat="59.4384468545" lon="17.8268616249">
        <ele>57.4</ele>
        <time>2013-05-04T19:01:02Z</time>
      </trkpt>
      <trkpt lat="59.4383844093" lon="17.8273265688">
        <ele>57.4</ele>
        <time>2013-05-04T19:01:07Z</time>
      </trkpt>
      <trkpt lat="59.4382933819" lon="17.8279417165">
        <ele>57.4</ele>
        <time>2013-05-04T19:01:13Z</time>
      </trkpt>
      <trkpt lat="59.4381588524" lon="17.828075324">
        <ele>57.4</ele>
        <time>2013-05-04T19:01:16Z</time>
      </trkpt>
      <trkpt lat="59.4380515641" lon="17.8280354261">
        <ele>57.4</ele>
        <time>2013-05-04T19:01:18Z</time>
      </trkpt>
      <trkpt lat="59.4379345527" lon="17.827971137">
        <ele>57.4</ele>
        <time>2013-05-04T19:01:20Z</time>
      </trkpt>
      <trkpt lat="59.4378162841" lon="17.8279042494">
        <ele>57.4</ele>
        <time>2013-05-04T19:01:22Z</time>
      </trkpt>
      <trkpt lat="59.4375196487" lon="17.8277452448">
        <ele>57.4</ele>
        <time>2013-05-04T19:01:27Z</time>
      </trkpt>
      <trkpt lat="59.4374639929" lon="17.8277024132">
        <ele>57.4</ele>
        <time>2013-05-04T19:01:28Z</time>
      </trkpt>
      <trkpt lat="59.4370274635" lon="17.8274564883">
        <ele>57.4</ele>
        <time>2013-05-04T19:01:36Z</time>
      </trkpt>
      <trkpt lat="59.4369277189" lon="17.8274510401">
        <ele>57.4</ele>
        <time>2013-05-04T19:01:38Z</time>
      </trkpt>
      <trkpt lat="59.4367926865" lon="17.827462188">
        <ele>57.4</ele>
        <time>2013-05-04T19:01:41Z</time>
      </trkpt>
      <trkpt lat="59.4367041736" lon="17.8274873337">
        <ele>57.4</ele>
        <time>2013-05-04T19:01:43Z</time>
      </trkpt>
      <trkpt lat="59.4366242103" lon="17.8275382118">
        <ele>57.4</ele>
        <time>2013-05-04T19:01:45Z</time>
      </trkpt>
      <trkpt lat="59.4365873299" lon="17.8275785288">
        <ele>57.4</ele>
        <time>2013-05-04T19:01:46Z</time>
      </trkpt>
      <trkpt lat="59.4365014155" lon="17.8276662873">
        <ele>57</ele>
        <time>2013-05-04T19:01:48Z</time>
      </trkpt>
      <trkpt lat="59.4364520461" lon="17.8277225298">
        <ele>56.6</ele>
        <time>2013-05-04T19:01:49Z</time>
      </trkpt>
      <trkpt lat="59.4364033472" lon="17.8277656128">
        <ele>56.2</ele>
        <time>2013-05-04T19:01:50Z</time>
      </trkpt>
      <trkpt lat="59.4363506251" lon="17.8278030799">
        <ele>55.8</ele>
        <time>2013-05-04T19:01:51Z</time>
      </trkpt>
      <trkpt lat="59.4362989088" lon="17.8278445703">
        <ele>55.4</ele>
        <time>2013-05-04T19:01:52Z</time>
      </trkpt>
      <trkpt lat="59.4359504732" lon="17.8281723026">
        <ele>55.4</ele>
        <time>2013-05-04T19:01:59Z</time>
      </trkpt>
      <trkpt lat="59.4358099087" lon="17.8283411978">
        <ele>55.4</ele>
        <time>2013-05-04T19:02:02Z</time>
      </trkpt>
      <trkpt lat="59.4356970883" lon="17.8284416968">
        <ele>55.4</ele>
        <time>2013-05-04T19:02:04Z</time>
      </trkpt>
      <trkpt lat="59.4356338888" lon="17.8284960954">
        <ele>54.8</ele>
        <time>2013-05-04T19:02:05Z</time>
      </trkpt>
      <trkpt lat="59.435571276" lon="17.828542112">
        <ele>54.4</ele>
        <time>2013-05-04T19:02:06Z</time>
      </trkpt>
      <trkpt lat="59.4355068192" lon="17.8285865361">
        <ele>54</ele>
        <time>2013-05-04T19:02:07Z</time>
      </trkpt>
      <trkpt lat="59.4354443741" lon="17.8286320498">
        <ele>53.4</ele>
        <time>2013-05-04T19:02:08Z</time>
      </trkpt>
      <trkpt lat="59.435384192" lon="17.8286727858">
        <ele>53</ele>
        <time>2013-05-04T19:02:09Z</time>
      </trkpt>
      <trkpt lat="59.435267516" lon="17.8287158688">
        <ele>53</ele>
        <time>2013-05-04T19:02:11Z</time>
      </trkpt>
      <trkpt lat="59.4351594733" lon="17.8286731211">
        <ele>53</ele>
        <time>2013-05-04T19:02:13Z</time>
      </trkpt>
      <trkpt lat="59.4350710442" lon="17.8285556907">
        <ele>53</ele>
        <time>2013-05-04T19:02:15Z</time>
      </trkpt>
      <trkpt lat="59.4349855489" lon="17.828454102">
        <ele>53</ele>
        <time>2013-05-04T19:02:17Z</time>
      </trkpt>
      <trkpt lat="59.4349425497" lon="17.8284191495">
        <ele>53</ele>
        <time>2013-05-04T19:02:18Z</time>
      </trkpt>
      <trkpt lat="59.4349101956" lon="17.8283972728">
        <ele>52.6</ele>
        <time>2013-05-04T19:02:19Z</time>
      </trkpt>
      <trkpt lat="59.4348815295" lon="17.8283863763">
        <ele>52</ele>
        <time>2013-05-04T19:02:20Z</time>
      </trkpt>
      <trkpt lat="59.4348726447" lon="17.8283827721">
        <ele>51.6</ele>
        <time>2013-05-04T19:02:21Z</time>
      </trkpt>
      <trkpt lat="59.4348692919" lon="17.8283810957">
        <ele>51.2</ele>
        <time>2013-05-04T19:02:22Z</time>
      </trkpt>
      <trkpt lat="59.4348692919" lon="17.8283810957">
        <ele>50.6</ele>
        <time>2013-05-04T19:02:23Z</time>
      </trkpt>
      <trkpt lat="59.4348692919" lon="17.8283810957">
        <ele>50.6</ele>
        <time>2013-05-04T19:02:26Z</time>
      </trkpt>
      <trkpt lat="59.4348335012" lon="17.8283810957">
        <ele>50.6</ele>
        <time>2013-05-04T19:02:30Z</time>
      </trkpt>
      <trkpt lat="59.4346900869" lon="17.8283866277">
        <ele>50.6</ele>
        <time>2013-05-04T19:02:33Z</time>
      </trkpt>
      <trkpt lat="59.4343878356" lon="17.8284263579">
        <ele>50.6</ele>
        <time>2013-05-04T19:02:38Z</time>
      </trkpt>
      <trkpt lat="59.4339814811" lon="17.828490228">
        <ele>50.2</ele>
        <time>2013-05-04T19:02:44Z</time>
      </trkpt>
      <trkpt lat="59.4339142582" lon="17.8284959277">
        <ele>49.8</ele>
        <time>2013-05-04T19:02:45Z</time>
      </trkpt>
      <trkpt lat="59.4338494661" lon="17.8285000348">
        <ele>49.2</ele>
        <time>2013-05-04T19:02:46Z</time>
      </trkpt>
      <trkpt lat="59.4337833329" lon="17.8285030523">
        <ele>48.8</ele>
        <time>2013-05-04T19:02:47Z</time>
      </trkpt>
      <trkpt lat="59.4337166968" lon="17.8285057345">
        <ele>48.4</ele>
        <time>2013-05-04T19:02:48Z</time>
      </trkpt>
      <trkpt lat="59.4336514857" lon="17.8285169663">
        <ele>48.4</ele>
        <time>2013-05-04T19:02:49Z</time>
      </trkpt>
      <trkpt lat="59.4335195545" lon="17.8285387592">
        <ele>48.4</ele>
        <time>2013-05-04T19:02:51Z</time>
      </trkpt>
      <trkpt lat="59.4331408603" lon="17.8287016195">
        <ele>48</ele>
        <time>2013-05-04T19:02:57Z</time>
      </trkpt>
      <trkpt lat="59.4330815165" lon="17.8287431099">
        <ele>47.4</ele>
        <time>2013-05-04T19:02:58Z</time>
      </trkpt>
      <trkpt lat="59.433023849" lon="17.8287866958">
        <ele>47</ele>
        <time>2013-05-04T19:02:59Z</time>
      </trkpt>
      <trkpt lat="59.4329666844" lon="17.8288323772">
        <ele>46.6</ele>
        <time>2013-05-04T19:03:00Z</time>
      </trkpt>
      <trkpt lat="59.4329091008" lon="17.8288785615">
        <ele>46.2</ele>
        <time>2013-05-04T19:03:01Z</time>
      </trkpt>
      <trkpt lat="59.4326622538" lon="17.8290950659">
        <ele>46.2</ele>
        <time>2013-05-04T19:03:05Z</time>
      </trkpt>
      <trkpt lat="59.4321780314" lon="17.8296270651">
        <ele>46.2</ele>
        <time>2013-05-04T19:03:13Z</time>
      </trkpt>
      <trkpt lat="59.4321276562" lon="17.829694288">
        <ele>45.8</ele>
        <time>2013-05-04T19:03:14Z</time>
      </trkpt>
      <trkpt lat="59.4320746826" lon="17.8297618461">
        <ele>45.4</ele>
        <time>2013-05-04T19:03:15Z</time>
      </trkpt>
      <trkpt lat="59.4320218767" lon="17.8298252132">
        <ele>45</ele>
        <time>2013-05-04T19:03:16Z</time>
      </trkpt>
      <trkpt lat="59.4319704118" lon="17.8298903406">
        <ele>44.6</ele>
        <time>2013-05-04T19:03:17Z</time>
      </trkpt>
      <trkpt lat="59.4319182764" lon="17.829955468">
        <ele>44.2</ele>
        <time>2013-05-04T19:03:18Z</time>
      </trkpt>
      <trkpt lat="59.4317546617" lon="17.8301524426">
        <ele>44.2</ele>
        <time>2013-05-04T19:03:21Z</time>
      </trkpt>
      <trkpt lat="59.4317026101" lon="17.8302225991">
        <ele>44.2</ele>
        <time>2013-05-04T19:03:22Z</time>
      </trkpt>
      <trkpt lat="59.4314951581" lon="17.8305437097">
        <ele>44.2</ele>
        <time>2013-05-04T19:03:26Z</time>
      </trkpt>
      <trkpt lat="59.4312827607" lon="17.8308545944">
        <ele>44.2</ele>
        <time>2013-05-04T19:03:30Z</time>
      </trkpt>
      <trkpt lat="59.4310721236" lon="17.8311444405">
        <ele>44.2</ele>
        <time>2013-05-04T19:03:34Z</time>
      </trkpt>
      <trkpt lat="59.4307007216" lon="17.8315344503">
        <ele>44.2</ele>
        <time>2013-05-04T19:03:41Z</time>
      </trkpt>
      <trkpt lat="59.4303646912" lon="17.8317006634">
        <ele>44.2</ele>
        <time>2013-05-04T19:03:47Z</time>
      </trkpt>
      <trkpt lat="59.4301587479" lon="17.8317780283">
        <ele>44.2</ele>
        <time>2013-05-04T19:03:51Z</time>
      </trkpt>
      <trkpt lat="59.4301119769" lon="17.8317570736">
        <ele>44.2</ele>
        <time>2013-05-04T19:03:52Z</time>
      </trkpt>
      <trkpt lat="59.4300273197" lon="17.8315347856">
        <ele>44.2</ele>
        <time>2013-05-04T19:03:55Z</time>
      </trkpt>
      <trkpt lat="59.4300013358" lon="17.831451218">
        <ele>44.2</ele>
        <time>2013-05-04T19:03:56Z</time>
      </trkpt>
      <trkpt lat="59.4298601008" lon="17.830962218">
        <ele>44.2</ele>
        <time>2013-05-04T19:04:01Z</time>
      </trkpt>
      <trkpt lat="59.4297366354" lon="17.8305953422">
        <ele>44.2</ele>
        <time>2013-05-04T19:04:05Z</time>
      </trkpt>
      <trkpt lat="59.4296949774" lon="17.8305427877">
        <ele>43.8</ele>
        <time>2013-05-04T19:04:06Z</time>
      </trkpt>
      <trkpt lat="59.4296570912" lon="17.8305073323">
        <ele>43.4</ele>
        <time>2013-05-04T19:04:07Z</time>
      </trkpt>
      <trkpt lat="59.4296222225" lon="17.8304500839">
        <ele>43</ele>
        <time>2013-05-04T19:04:08Z</time>
      </trkpt>
      <trkpt lat="59.4295945622" lon="17.8303686956">
        <ele>42.6</ele>
        <time>2013-05-04T19:04:09Z</time>
      </trkpt>
      <trkpt lat="59.4295662314" lon="17.8302651792">
        <ele>42.2</ele>
        <time>2013-05-04T19:04:10Z</time>
      </trkpt>
      <trkpt lat="59.4295368109" lon="17.8301508501">
        <ele>42.2</ele>
        <time>2013-05-04T19:04:11Z</time>
      </trkpt>
      <trkpt lat="59.429471935" lon="17.8299154863">
        <ele>41.8</ele>
        <time>2013-05-04T19:04:13Z</time>
      </trkpt>
      <trkpt lat="59.4294360605" lon="17.8298038394">
        <ele>41.4</ele>
        <time>2013-05-04T19:04:14Z</time>
      </trkpt>
      <trkpt lat="59.4294017785" lon="17.8296973893">
        <ele>41</ele>
        <time>2013-05-04T19:04:15Z</time>
      </trkpt>
      <trkpt lat="59.4293659878" lon="17.8295879217">
        <ele>40.6</ele>
        <time>2013-05-04T19:04:16Z</time>
      </trkpt>
      <trkpt lat="59.4293322088" lon="17.8294834832">
        <ele>40.2</ele>
        <time>2013-05-04T19:04:17Z</time>
      </trkpt>
      <trkpt lat="59.4292301172" lon="17.8292254045">
        <ele>40.2</ele>
        <time>2013-05-04T19:04:20Z</time>
      </trkpt>
      <trkpt lat="59.4291976793" lon="17.8291520628">
        <ele>40.2</ele>
        <time>2013-05-04T19:04:21Z</time>
      </trkpt>
      <trkpt lat="59.4289706974" lon="17.8285019627">
        <ele>40.2</ele>
        <time>2013-05-04T19:04:29Z</time>
      </trkpt>
      <trkpt lat="59.4289354934" lon="17.8284558622">
        <ele>40.2</ele>
        <time>2013-05-04T19:04:30Z</time>
      </trkpt>
      <trkpt lat="59.4288651693" lon="17.8284256036">
        <ele>40.2</ele>
        <time>2013-05-04T19:04:32Z</time>
      </trkpt>
      <trkpt lat="59.428734244" lon="17.8285245938">
        <ele>40.2</ele>
        <time>2013-05-04T19:04:35Z</time>
      </trkpt>
      <trkpt lat="59.4286918316" lon="17.8285943312">
        <ele>40.6</ele>
        <time>2013-05-04T19:04:36Z</time>
      </trkpt>
      <trkpt lat="59.4286506765" lon="17.8286759709">
        <ele>41</ele>
        <time>2013-05-04T19:04:37Z</time>
      </trkpt>
      <trkpt lat="59.428608767" lon="17.8287610472">
        <ele>41.4</ele>
        <time>2013-05-04T19:04:38Z</time>
      </trkpt>
      <trkpt lat="59.4285642591" lon="17.8288474646">
        <ele>41.8</ele>
        <time>2013-05-04T19:04:39Z</time>
      </trkpt>
      <trkpt lat="59.4285182425" lon="17.8289358098">
        <ele>42.2</ele>
        <time>2013-05-04T19:04:40Z</time>
      </trkpt>
      <trkpt lat="59.4284683701" lon="17.8290133424">
        <ele>42.2</ele>
        <time>2013-05-04T19:04:41Z</time>
      </trkpt>
      <trkpt lat="59.4281733273" lon="17.8294690663">
        <ele>42.2</ele>
        <time>2013-05-04T19:04:47Z</time>
      </trkpt>
      <trkpt lat="59.4279014184" lon="17.8299019914">
        <ele>42.2</ele>
        <time>2013-05-04T19:04:53Z</time>
      </trkpt>
      <trkpt lat="59.4276208762" lon="17.8303158897">
        <ele>42.2</ele>
        <time>2013-05-04T19:04:59Z</time>
      </trkpt>
      <trkpt lat="59.4273159427" lon="17.8306301271">
        <ele>42.2</ele>
        <time>2013-05-04T19:05:05Z</time>
      </trkpt>
      <trkpt lat="59.4269229154" lon="17.8309061431">
        <ele>42.2</ele>
        <time>2013-05-04T19:05:12Z</time>
      </trkpt>
      <trkpt lat="59.4264223484" lon="17.8312117471">
        <ele>42.2</ele>
        <time>2013-05-04T19:05:21Z</time>
      </trkpt>
      <trkpt lat="59.4262644334" lon="17.8312840829">
        <ele>42.2</ele>
        <time>2013-05-04T19:05:24Z</time>
      </trkpt>
      <trkpt lat="59.4261013216" lon="17.8312939736">
        <ele>42.2</ele>
        <time>2013-05-04T19:05:27Z</time>
      </trkpt>
      <trkpt lat="59.4258828055" lon="17.8313415828">
        <ele>42.2</ele>
        <time>2013-05-04T19:05:31Z</time>
      </trkpt>
      <trkpt lat="59.4257863298" lon="17.8313575084">
        <ele>42.2</ele>
        <time>2013-05-04T19:05:33Z</time>
      </trkpt>
      <trkpt lat="59.4257180173" lon="17.8312342106">
        <ele>42.2</ele>
        <time>2013-05-04T19:05:35Z</time>
      </trkpt>
      <trkpt lat="59.4256861661" lon="17.8310626331">
        <ele>42.2</ele>
        <time>2013-05-04T19:05:37Z</time>
      </trkpt>
      <trkpt lat="59.4256614395" lon="17.8308908042">
        <ele>42.2</ele>
        <time>2013-05-04T19:05:39Z</time>
      </trkpt>
      <trkpt lat="59.4256631997" lon="17.8308058955">
        <ele>42.2</ele>
        <time>2013-05-04T19:05:40Z</time>
      </trkpt>
      <trkpt lat="59.4256887645" lon="17.8306483996">
        <ele>42.2</ele>
        <time>2013-05-04T19:05:42Z</time>
      </trkpt>
      <trkpt lat="59.4257087972" lon="17.8304942565">
        <ele>42.2</ele>
        <time>2013-05-04T19:05:44Z</time>
      </trkpt>
      <trkpt lat="59.4257138264" lon="17.8303341622">
        <ele>42.2</ele>
        <time>2013-05-04T19:05:46Z</time>
      </trkpt>
      <trkpt lat="59.4257082943" lon="17.830267107">
        <ele>42.2</ele>
        <time>2013-05-04T19:05:47Z</time>
      </trkpt>
      <trkpt lat="59.4257012535" lon="17.8302055839">
        <ele>42.8</ele>
        <time>2013-05-04T19:05:48Z</time>
      </trkpt>
      <trkpt lat="59.4256899379" lon="17.8301465753">
        <ele>43.2</ele>
        <time>2013-05-04T19:05:49Z</time>
      </trkpt>
      <trkpt lat="59.4256713301" lon="17.8300964515">
        <ele>43.6</ele>
        <time>2013-05-04T19:05:50Z</time>
      </trkpt>
      <trkpt lat="59.4256508783" lon="17.8300464116">
        <ele>44.2</ele>
        <time>2013-05-04T19:05:51Z</time>
      </trkpt>
      <trkpt lat="59.4256185241" lon="17.8299962878">
        <ele>44.6</ele>
        <time>2013-05-04T19:05:52Z</time>
      </trkpt>
      <trkpt lat="59.4255465236" lon="17.8298873231">
        <ele>45</ele>
        <time>2013-05-04T19:05:54Z</time>
      </trkpt>
      <trkpt lat="59.4255114873" lon="17.8298269734">
        <ele>45.4</ele>
        <time>2013-05-04T19:05:55Z</time>
      </trkpt>
      <trkpt lat="59.4254803904" lon="17.8297722396">
        <ele>45.8</ele>
        <time>2013-05-04T19:05:56Z</time>
      </trkpt>
      <trkpt lat="59.4254492098" lon="17.8297319227">
        <ele>46.2</ele>
        <time>2013-05-04T19:05:57Z</time>
      </trkpt>
      <trkpt lat="59.4254181129" lon="17.8296905999">
        <ele>46.6</ele>
        <time>2013-05-04T19:05:58Z</time>
      </trkpt>
      <trkpt lat="59.4253520635" lon="17.8295092156">
        <ele>46.6</ele>
        <time>2013-05-04T19:06:01Z</time>
      </trkpt>
      <trkpt lat="59.4253484593" lon="17.8294347843">
        <ele>46.6</ele>
        <time>2013-05-04T19:06:02Z</time>
      </trkpt>
      <trkpt lat="59.4253650555" lon="17.8288270966">
        <ele>46.6</ele>
        <time>2013-05-04T19:06:09Z</time>
      </trkpt>
      <trkpt lat="59.425397242" lon="17.8282826922">
        <ele>46.6</ele>
        <time>2013-05-04T19:06:15Z</time>
      </trkpt>
      <trkpt lat="59.4254127485" lon="17.8280940994">
        <ele>47</ele>
        <time>2013-05-04T19:06:17Z</time>
      </trkpt>
      <trkpt lat="59.4254234773" lon="17.8280039102">
        <ele>47.4</ele>
        <time>2013-05-04T19:06:18Z</time>
      </trkpt>
      <trkpt lat="59.4254330327" lon="17.8279131342">
        <ele>47.8</ele>
        <time>2013-05-04T19:06:19Z</time>
      </trkpt>
      <trkpt lat="59.4254444321" lon="17.82782152">
        <ele>48.2</ele>
        <time>2013-05-04T19:06:20Z</time>
      </trkpt>
      <trkpt lat="59.4254575078" lon="17.8277314146">
        <ele>48.6</ele>
        <time>2013-05-04T19:06:21Z</time>
      </trkpt>
      <trkpt lat="59.4254704998" lon="17.8276421474">
        <ele>48.6</ele>
        <time>2013-05-04T19:06:22Z</time>
      </trkpt>
      <trkpt lat="59.4255303466" lon="17.827389936">
        <ele>48.6</ele>
        <time>2013-05-04T19:06:25Z</time>
      </trkpt>
      <trkpt lat="59.4255937975" lon="17.8272466893">
        <ele>48.6</ele>
        <time>2013-05-04T19:06:27Z</time>
      </trkpt>
      <trkpt lat="59.4258653711" lon="17.8267192164">
        <ele>48.6</ele>
        <time>2013-05-04T19:06:35Z</time>
      </trkpt>
      <trkpt lat="59.4258948754" lon="17.8266633929">
        <ele>48.6</ele>
        <time>2013-05-04T19:06:36Z</time>
      </trkpt>
      <trkpt lat="59.4259244635" lon="17.8266010316">
        <ele>49</ele>
        <time>2013-05-04T19:06:37Z</time>
      </trkpt>
      <trkpt lat="59.4259536325" lon="17.8265314618">
        <ele>49.4</ele>
        <time>2013-05-04T19:06:38Z</time>
      </trkpt>
      <trkpt lat="59.4259753416" lon="17.8264468884">
        <ele>49.8</ele>
        <time>2013-05-04T19:06:39Z</time>
      </trkpt>
      <trkpt lat="59.4259897585" lon="17.8263552743">
        <ele>50.2</ele>
        <time>2013-05-04T19:06:40Z</time>
      </trkpt>
      <trkpt lat="59.4260021637" lon="17.8262597206">
        <ele>50.6</ele>
        <time>2013-05-04T19:06:41Z</time>
      </trkpt>
      <trkpt lat="59.426014988" lon="17.8261671006">
        <ele>50.6</ele>
        <time>2013-05-04T19:06:42Z</time>
      </trkpt>
      <trkpt lat="59.4260195981" lon="17.8260733072">
        <ele>50.6</ele>
        <time>2013-05-04T19:06:43Z</time>
      </trkpt>
      <trkpt lat="59.4260199333" lon="17.8257692118">
        <ele>50.6</ele>
        <time>2013-05-04T19:06:46Z</time>
      </trkpt>
      <trkpt lat="59.4260155748" lon="17.8256643543">
        <ele>50.6</ele>
        <time>2013-05-04T19:06:47Z</time>
      </trkpt>
      <trkpt lat="59.4260144851" lon="17.8249124978">
        <ele>50.6</ele>
        <time>2013-05-04T19:06:54Z</time>
      </trkpt>
      <trkpt lat="59.426008031" lon="17.824403968">
        <ele>50.6</ele>
        <time>2013-05-04T19:06:59Z</time>
      </trkpt>
      <trkpt lat="59.4260021637" lon="17.8243029661">
        <ele>50.6</ele>
        <time>2013-05-04T19:07:00Z</time>
      </trkpt>
      <trkpt lat="59.426004343" lon="17.8242045626">
        <ele>50.6</ele>
        <time>2013-05-04T19:07:01Z</time>
      </trkpt>
      <trkpt lat="59.4260498567" lon="17.8240249384">
        <ele>50.6</ele>
        <time>2013-05-04T19:07:03Z</time>
      </trkpt>
      <trkpt lat="59.4260936941" lon="17.8238581386">
        <ele>50.6</ele>
        <time>2013-05-04T19:07:05Z</time>
      </trkpt>
      <trkpt lat="59.4261051773" lon="17.8236584818">
        <ele>50.6</ele>
        <time>2013-05-04T19:07:07Z</time>
      </trkpt>
      <trkpt lat="59.4261313288" lon="17.8229150072">
        <ele>50.6</ele>
        <time>2013-05-04T19:07:14Z</time>
      </trkpt>
      <trkpt lat="59.4261329214" lon="17.8226985028">
        <ele>50.6</ele>
        <time>2013-05-04T19:07:16Z</time>
      </trkpt>
      <trkpt lat="59.4260665367" lon="17.8225446111">
        <ele>50.6</ele>
        <time>2013-05-04T19:07:18Z</time>
      </trkpt>
      <trkpt lat="59.4259690552" lon="17.8224388315">
        <ele>50.6</ele>
        <time>2013-05-04T19:07:20Z</time>
      </trkpt>
      <trkpt lat="59.4258625213" lon="17.8223541743">
        <ele>50.6</ele>
        <time>2013-05-04T19:07:22Z</time>
      </trkpt>
      <trkpt lat="59.4258040994" lon="17.8223092473">
        <ele>50.6</ele>
        <time>2013-05-04T19:07:23Z</time>
      </trkpt>
      <trkpt lat="59.4254113236" lon="17.8219936688">
        <ele>50.6</ele>
        <time>2013-05-04T19:07:30Z</time>
      </trkpt>
      <trkpt lat="59.4250499799" lon="17.821704158">
        <ele>50.6</ele>
        <time>2013-05-04T19:07:36Z</time>
      </trkpt>
      <trkpt lat="59.4248245906" lon="17.8215020704">
        <ele>50.2</ele>
        <time>2013-05-04T19:07:40Z</time>
      </trkpt>
      <trkpt lat="59.4247707788" lon="17.8214484262">
        <ele>49.8</ele>
        <time>2013-05-04T19:07:41Z</time>
      </trkpt>
      <trkpt lat="59.4247176375" lon="17.8213899205">
        <ele>49.4</ele>
        <time>2013-05-04T19:07:42Z</time>
      </trkpt>
      <trkpt lat="59.424663239" lon="17.8213290679">
        <ele>49</ele>
        <time>2013-05-04T19:07:43Z</time>
      </trkpt>
      <trkpt lat="59.4246117741" lon="17.8212684668">
        <ele>48.6</ele>
        <time>2013-05-04T19:07:44Z</time>
      </trkpt>
      <trkpt lat="59.4245189865" lon="17.8211279862">
        <ele>48.6</ele>
        <time>2013-05-04T19:07:46Z</time>
      </trkpt>
      <trkpt lat="59.4244738081" lon="17.8210481905">
        <ele>48.6</ele>
        <time>2013-05-04T19:07:47Z</time>
      </trkpt>
      <trkpt lat="59.4243825292" lon="17.8209151697">
        <ele>48.6</ele>
        <time>2013-05-04T19:07:49Z</time>
      </trkpt>
      <trkpt lat="59.4242795994" lon="17.8208238908">
        <ele>48.6</ele>
        <time>2013-05-04T19:07:51Z</time>
      </trkpt>
      <trkpt lat="59.4241935173" lon="17.8207178598">
        <ele>48.6</ele>
        <time>2013-05-04T19:07:53Z</time>
      </trkpt>
      <trkpt lat="59.4240296512" lon="17.8205071388">
        <ele>48.6</ele>
        <time>2013-05-04T19:07:57Z</time>
      </trkpt>
      <trkpt lat="59.4238748375" lon="17.8202956635">
        <ele>48.6</ele>
        <time>2013-05-04T19:08:01Z</time>
      </trkpt>
      <trkpt lat="59.4237499472" lon="17.8201334737">
        <ele>48.6</ele>
        <time>2013-05-04T19:08:04Z</time>
      </trkpt>
      <trkpt lat="59.4237089597" lon="17.8200755548">
        <ele>48.6</ele>
        <time>2013-05-04T19:08:05Z</time>
      </trkpt>
      <trkpt lat="59.4233946384" lon="17.8197099363">
        <ele>49</ele>
        <time>2013-05-04T19:08:12Z</time>
      </trkpt>
      <trkpt lat="59.4233499629" lon="17.8196612375">
        <ele>49.6</ele>
        <time>2013-05-04T19:08:13Z</time>
      </trkpt>
      <trkpt lat="59.4233047845" lon="17.8196127901">
        <ele>50</ele>
        <time>2013-05-04T19:08:14Z</time>
      </trkpt>
      <trkpt lat="59.4232613662" lon="17.819566522">
        <ele>50.4</ele>
        <time>2013-05-04T19:08:15Z</time>
      </trkpt>
      <trkpt lat="59.4232134218" lon="17.8195157277">
        <ele>51</ele>
        <time>2013-05-04T19:08:16Z</time>
      </trkpt>
      <trkpt lat="59.4230190455" lon="17.8193230278">
        <ele>51</ele>
        <time>2013-05-04T19:08:20Z</time>
      </trkpt>
      <trkpt lat="59.4226836019" lon="17.8189678867">
        <ele>51</ele>
        <time>2013-05-04T19:08:27Z</time>
      </trkpt>
      <trkpt lat="59.422427451" lon="17.8187265718">
        <ele>51</ele>
        <time>2013-05-04T19:08:32Z</time>
      </trkpt>
      <trkpt lat="59.4223710408" lon="17.8186780406">
        <ele>50.4</ele>
        <time>2013-05-04T19:08:33Z</time>
      </trkpt>
      <trkpt lat="59.4223158041" lon="17.8186286712">
        <ele>50</ele>
        <time>2013-05-04T19:08:34Z</time>
      </trkpt>
      <trkpt lat="59.4222626628" lon="17.8185720934">
        <ele>49.6</ele>
        <time>2013-05-04T19:08:35Z</time>
      </trkpt>
      <trkpt lat="59.4222103598" lon="17.8185205447">
        <ele>49.2</ele>
        <time>2013-05-04T19:08:36Z</time>
      </trkpt>
      <trkpt lat="59.4221603198" lon="17.8184735223">
        <ele>48.6</ele>
        <time>2013-05-04T19:08:37Z</time>
      </trkpt>
      <trkpt lat="59.421854632" lon="17.8181692593">
        <ele>48.6</ele>
        <time>2013-05-04T19:08:44Z</time>
      </trkpt>
      <trkpt lat="59.4218101241" lon="17.8181375757">
        <ele>48.6</ele>
        <time>2013-05-04T19:08:45Z</time>
      </trkpt>
      <trkpt lat="59.4216854852" lon="17.8180062313">
        <ele>48.6</ele>
        <time>2013-05-04T19:08:48Z</time>
      </trkpt>
      <trkpt lat="59.4216418155" lon="17.8179740448">
        <ele>48.6</ele>
        <time>2013-05-04T19:08:49Z</time>
      </trkpt>
      <trkpt lat="59.4215696474" lon="17.8178908126">
        <ele>48.6</ele>
        <time>2013-05-04T19:08:51Z</time>
      </trkpt>
      <trkpt lat="59.4215472677" lon="17.8178348215">
        <ele>48.6</ele>
        <time>2013-05-04T19:08:52Z</time>
      </trkpt>
      <trkpt lat="59.4215589185" lon="17.8176318119">
        <ele>48.6</ele>
        <time>2013-05-04T19:08:55Z</time>
      </trkpt>
      <trkpt lat="59.421650868" lon="17.8174197498">
        <ele>49.2</ele>
        <time>2013-05-04T19:08:59Z</time>
      </trkpt>
      <trkpt lat="59.4216792826" lon="17.8173730626">
        <ele>49.6</ele>
        <time>2013-05-04T19:09:00Z</time>
      </trkpt>
      <trkpt lat="59.4217132293" lon="17.8173521917">
        <ele>50</ele>
        <time>2013-05-04T19:09:01Z</time>
      </trkpt>
      <trkpt lat="59.4217535462" lon="17.8173560473">
        <ele>50.4</ele>
        <time>2013-05-04T19:09:02Z</time>
      </trkpt>
      <trkpt lat="59.4217895884" lon="17.8173822827">
        <ele>50.8</ele>
        <time>2013-05-04T19:09:03Z</time>
      </trkpt>
      <trkpt lat="59.4218459986" lon="17.8174656826">
        <ele>50.8</ele>
        <time>2013-05-04T19:09:05Z</time>
      </trkpt>
      <trkpt lat="59.4219366069" lon="17.8175827777">
        <ele>50.8</ele>
        <time>2013-05-04T19:09:08Z</time>
      </trkpt>
      <trkpt lat="59.4220267962" lon="17.8176396908">
        <ele>50.8</ele>
        <time>2013-05-04T19:09:11Z</time>
      </trkpt>
      <trkpt lat="59.4220455716" lon="17.8176059956">
        <ele>50.8</ele>
        <time>2013-05-04T19:09:12Z</time>
      </trkpt>
      <trkpt lat="59.4220665264" lon="17.8175583026">
        <ele>50.8</ele>
        <time>2013-05-04T19:09:15Z</time>
      </trkpt>
      <trkpt lat="59.4220667778" lon="17.817560901">
        <ele>51.6</ele>
        <time>2013-05-04T19:09:16Z</time>
      </trkpt>
      <trkpt lat="59.4220667778" lon="17.817560901">
        <ele>52</ele>
        <time>2013-05-04T19:09:17Z</time>
      </trkpt>
      <trkpt lat="59.4220723099" lon="17.8175563748">
        <ele>52.4</ele>
        <time>2013-05-04T19:09:18Z</time>
      </trkpt>
      <trkpt lat="59.4220802727" lon="17.8175522676">
        <ele>52.8</ele>
        <time>2013-05-04T19:09:19Z</time>
      </trkpt>
      <trkpt lat="59.4220858886" lon="17.8175378508">
        <ele>52.8</ele>
        <time>2013-05-04T19:09:20Z</time>
      </trkpt>
      <trkpt lat="59.4220995511" lon="17.8174825302">
        <ele>52.8</ele>
        <time>2013-05-04T19:09:27Z</time>
      </trkpt>
      <trkpt lat="59.4220995511" lon="17.8174825302">
        <ele>52.8</ele>
        <time>2013-05-04T19:09:38Z</time>
      </trkpt>
      <trkpt lat="59.4220995511" lon="17.8174825302">
        <ele>52.8</ele>
        <time>2013-05-04T19:09:53Z</time>
      </trkpt>
      <trkpt lat="59.4220996349" lon="17.8174804347">
        <ele>52.8</ele>
        <time>2013-05-04T19:10:05Z</time>
      </trkpt>
      <trkpt lat="59.4220996349" lon="17.8174804347">
        <ele>52.8</ele>
        <time>2013-05-04T19:10:06Z</time>
      </trkpt>
      <trkpt lat="59.4220148101" lon="17.8175913273">
        <ele>39.4</ele>
        <time>2013-05-05T00:25:09Z</time>
      </trkpt>
      <trkpt lat="59.4219701345" lon="17.8175635832">
        <ele>39.4</ele>
        <time>2013-05-05T00:25:11Z</time>
      </trkpt>
      <trkpt lat="59.4219152331" lon="17.8174946001">
        <ele>39.4</ele>
        <time>2013-05-05T00:25:13Z</time>
      </trkpt>
      <trkpt lat="59.421749942" lon="17.8173058398">
        <ele>39.4</ele>
        <time>2013-05-05T00:25:17Z</time>
      </trkpt>
      <trkpt lat="59.4217057694" lon="17.8172940213">
        <ele>39.4</ele>
        <time>2013-05-05T00:25:18Z</time>
      </trkpt>
      <trkpt lat="59.4216237106" lon="17.8174067578">
        <ele>39.4</ele>
        <time>2013-05-05T00:25:20Z</time>
      </trkpt>
      <trkpt lat="59.4215208647" lon="17.8177147088">
        <ele>39.2</ele>
        <time>2013-05-05T00:25:24Z</time>
      </trkpt>
      <trkpt lat="59.4215222058" lon="17.8177874637">
        <ele>39</ele>
        <time>2013-05-05T00:25:25Z</time>
      </trkpt>
      <trkpt lat="59.4215367065" lon="17.8178379228">
        <ele>39</ele>
        <time>2013-05-05T00:25:26Z</time>
      </trkpt>
      <trkpt lat="59.4215621036" lon="17.8178888847">
        <ele>38.8</ele>
        <time>2013-05-05T00:25:27Z</time>
      </trkpt>
      <trkpt lat="59.4215884228" lon="17.8179388408">
        <ele>38.2</ele>
        <time>2013-05-05T00:25:28Z</time>
      </trkpt>
      <trkpt lat="59.4216364511" lon="17.8179861148">
        <ele>37.8</ele>
        <time>2013-05-05T00:25:29Z</time>
      </trkpt>
      <trkpt lat="59.4216901791" lon="17.8180364062">
        <ele>37.4</ele>
        <time>2013-05-05T00:25:30Z</time>
      </trkpt>
      <trkpt lat="59.421746254" lon="17.8180873681">
        <ele>37</ele>
        <time>2013-05-05T00:25:31Z</time>
      </trkpt>
      <trkpt lat="59.4217982218" lon="17.8181495618">
        <ele>36.4</ele>
        <time>2013-05-05T00:25:32Z</time>
      </trkpt>
      <trkpt lat="59.4220803565" lon="17.8184343788">
        <ele>36.4</ele>
        <time>2013-05-05T00:25:37Z</time>
      </trkpt>
      <trkpt lat="59.4225541015" lon="17.8189063636">
        <ele>36.4</ele>
        <time>2013-05-05T00:25:45Z</time>
      </trkpt>
      <trkpt lat="59.422943776" lon="17.8192923501">
        <ele>36.4</ele>
        <time>2013-05-05T00:25:52Z</time>
      </trkpt>
      <trkpt lat="59.4232361367" lon="17.8195971998">
        <ele>36.4</ele>
        <time>2013-05-05T00:25:57Z</time>
      </trkpt>
      <trkpt lat="59.423637043" lon="17.8200658318">
        <ele>36.4</ele>
        <time>2013-05-05T00:26:05Z</time>
      </trkpt>
      <trkpt lat="59.4240824572" lon="17.8206354657">
        <ele>36.4</ele>
        <time>2013-05-05T00:26:14Z</time>
      </trkpt>
      <trkpt lat="59.4243536116" lon="17.8209631142">
        <ele>36</ele>
        <time>2013-05-05T00:26:19Z</time>
      </trkpt>
      <trkpt lat="59.4244089322" lon="17.821025727">
        <ele>35.6</ele>
        <time>2013-05-05T00:26:20Z</time>
      </trkpt>
      <trkpt lat="59.424456709" lon="17.8211166706">
        <ele>35.2</ele>
        <time>2013-05-05T00:26:21Z</time>
      </trkpt>
      <trkpt lat="59.4244950981" lon="17.8212108832">
        <ele>34.8</ele>
        <time>2013-05-05T00:26:22Z</time>
      </trkpt>
      <trkpt lat="59.4245401927" lon="17.8212897568">
        <ele>34.2</ele>
        <time>2013-05-05T00:26:23Z</time>
      </trkpt>
      <trkpt lat="59.424643793" lon="17.8214055109">
        <ele>34.2</ele>
        <time>2013-05-05T00:26:25Z</time>
      </trkpt>
      <trkpt lat="59.4247694377" lon="17.8215091112">
        <ele>34.2</ele>
        <time>2013-05-05T00:26:27Z</time>
      </trkpt>
      <trkpt lat="59.4249048054" lon="17.8216347558">
        <ele>34.2</ele>
        <time>2013-05-05T00:26:29Z</time>
      </trkpt>
      <trkpt lat="59.4253116628" lon="17.8219826047">
        <ele>34.2</ele>
        <time>2013-05-05T00:26:35Z</time>
      </trkpt>
      <trkpt lat="59.4254351282" lon="17.8220727939">
        <ele>34.2</ele>
        <time>2013-05-05T00:26:37Z</time>
      </trkpt>
      <trkpt lat="59.4255663049" lon="17.8221704431">
        <ele>34.8</ele>
        <time>2013-05-05T00:26:39Z</time>
      </trkpt>
      <trkpt lat="59.4256331087" lon="17.8222229138">
        <ele>35.2</ele>
        <time>2013-05-05T00:26:40Z</time>
      </trkpt>
      <trkpt lat="59.4256987389" lon="17.8222816709">
        <ele>35.8</ele>
        <time>2013-05-05T00:26:41Z</time>
      </trkpt>
      <trkpt lat="59.4257567417" lon="17.8223314594">
        <ele>36.2</ele>
        <time>2013-05-05T00:26:42Z</time>
      </trkpt>
      <trkpt lat="59.4258165046" lon="17.8223766378">
        <ele>36.6</ele>
        <time>2013-05-05T00:26:43Z</time>
      </trkpt>
      <trkpt lat="59.4260283991" lon="17.8225466227">
        <ele>36.6</ele>
        <time>2013-05-05T00:26:47Z</time>
      </trkpt>
      <trkpt lat="59.4260721526" lon="17.8225980876">
        <ele>36.6</ele>
        <time>2013-05-05T00:26:48Z</time>
      </trkpt>
      <trkpt lat="59.4261282275" lon="17.8228509695">
        <ele>36.6</ele>
        <time>2013-05-05T00:26:51Z</time>
      </trkpt>
      <trkpt lat="59.4260851445" lon="17.8231693141">
        <ele>36.6</ele>
        <time>2013-05-05T00:26:54Z</time>
      </trkpt>
      <trkpt lat="59.4260846416" lon="17.8232885047">
        <ele>36.6</ele>
        <time>2013-05-05T00:26:55Z</time>
      </trkpt>
      <trkpt lat="59.4260814565" lon="17.8239134592">
        <ele>36.6</ele>
        <time>2013-05-05T00:27:00Z</time>
      </trkpt>
      <trkpt lat="59.4260685484" lon="17.8247436864">
        <ele>36.6</ele>
        <time>2013-05-05T00:27:07Z</time>
      </trkpt>
      <trkpt lat="59.4260642736" lon="17.8253873325">
        <ele>37</ele>
        <time>2013-05-05T00:27:12Z</time>
      </trkpt>
      <trkpt lat="59.4260665367" lon="17.8255040923">
        <ele>37.4</ele>
        <time>2013-05-05T00:27:13Z</time>
      </trkpt>
      <trkpt lat="59.4260683807" lon="17.8256216066">
        <ele>37.8</ele>
        <time>2013-05-05T00:27:14Z</time>
      </trkpt>
      <trkpt lat="59.4260698056" lon="17.8257344269">
        <ele>38.2</ele>
        <time>2013-05-05T00:27:15Z</time>
      </trkpt>
      <trkpt lat="59.4260700571" lon="17.8258439784">
        <ele>38.6</ele>
        <time>2013-05-05T00:27:16Z</time>
      </trkpt>
      <trkpt lat="59.4260726555" lon="17.8264206531">
        <ele>38.6</ele>
        <time>2013-05-05T00:27:21Z</time>
      </trkpt>
      <trkpt lat="59.4261117151" lon="17.8266216511">
        <ele>38.6</ele>
        <time>2013-05-05T00:27:23Z</time>
      </trkpt>
      <trkpt lat="59.4261549657" lon="17.8266788156">
        <ele>38.6</ele>
        <time>2013-05-05T00:27:24Z</time>
      </trkpt>
      <trkpt lat="59.4263024872" lon="17.8267614612">
        <ele>38.6</ele>
        <time>2013-05-05T00:27:27Z</time>
      </trkpt>
      <trkpt lat="59.4263759965" lon="17.8268220623">
        <ele>38.6</ele>
        <time>2013-05-05T00:27:29Z</time>
      </trkpt>
      <trkpt lat="59.4263975379" lon="17.8269870181">
        <ele>38.6</ele>
        <time>2013-05-05T00:27:31Z</time>
      </trkpt>
      <trkpt lat="59.4263833725" lon="17.8273284967">
        <ele>38.6</ele>
        <time>2013-05-05T00:27:34Z</time>
      </trkpt>
      <trkpt lat="59.426381277" lon="17.8274382996">
        <ele>38.6</ele>
        <time>2013-05-05T00:27:35Z</time>
      </trkpt>
      <trkpt lat="59.4263919221" lon="17.8277475917">
        <ele>38.6</ele>
        <time>2013-05-05T00:27:38Z</time>
      </trkpt>
      <trkpt lat="59.4264334125" lon="17.827866447">
        <ele>38.6</ele>
        <time>2013-05-05T00:27:40Z</time>
      </trkpt>
      <trkpt lat="59.4265395273" lon="17.8279164032">
        <ele>38.6</ele>
        <time>2013-05-05T00:27:42Z</time>
      </trkpt>
      <trkpt lat="59.4265857954" lon="17.8279356815">
        <ele>38.6</ele>
        <time>2013-05-05T00:27:43Z</time>
      </trkpt>
      <trkpt lat="59.4268838558" lon="17.828045233">
        <ele>38.6</ele>
        <time>2013-05-05T00:27:49Z</time>
      </trkpt>
      <trkpt lat="59.4270048066" lon="17.8280806884">
        <ele>38.6</ele>
        <time>2013-05-05T00:27:53Z</time>
      </trkpt>
      <trkpt lat="59.4270401782" lon="17.828091501">
        <ele>38.2</ele>
        <time>2013-05-05T00:27:54Z</time>
      </trkpt>
      <trkpt lat="59.4270775615" lon="17.8281045768">
        <ele>37.8</ele>
        <time>2013-05-05T00:27:55Z</time>
      </trkpt>
      <trkpt lat="59.4271153638" lon="17.8281161438">
        <ele>37.4</ele>
        <time>2013-05-05T00:27:56Z</time>
      </trkpt>
      <trkpt lat="59.427153753" lon="17.8281411219">
        <ele>37</ele>
        <time>2013-05-05T00:27:57Z</time>
      </trkpt>
      <trkpt lat="59.427183844" lon="17.8281486656">
        <ele>36.6</ele>
        <time>2013-05-05T00:27:58Z</time>
      </trkpt>
      <trkpt lat="59.4272815769" lon="17.8281657647">
        <ele>36.6</ele>
        <time>2013-05-05T00:28:02Z</time>
      </trkpt>
      <trkpt lat="59.427307477" lon="17.8281689498">
        <ele>36.6</ele>
        <time>2013-05-05T00:28:03Z</time>
      </trkpt>
      <trkpt lat="59.4274478738" lon="17.8281790081">
        <ele>36.6</ele>
        <time>2013-05-05T00:28:09Z</time>
      </trkpt>
      <trkpt lat="59.4276067946" lon="17.8282132062">
        <ele>36.6</ele>
        <time>2013-05-05T00:28:13Z</time>
      </trkpt>
      <trkpt lat="59.4278157554" lon="17.8282150502">
        <ele>36.6</ele>
        <time>2013-05-05T00:28:17Z</time>
      </trkpt>
      <trkpt lat="59.4278721656" lon="17.8281886473">
        <ele>36.2</ele>
        <time>2013-05-05T00:28:18Z</time>
      </trkpt>
      <trkpt lat="59.4279301683" lon="17.8281784213">
        <ele>35.8</ele>
        <time>2013-05-05T00:28:19Z</time>
      </trkpt>
      <trkpt lat="59.4279814656" lon="17.8281462348">
        <ele>35.4</ele>
        <time>2013-05-05T00:28:20Z</time>
      </trkpt>
      <trkpt lat="59.4280387978" lon="17.8281183231">
        <ele>35</ele>
        <time>2013-05-05T00:28:21Z</time>
      </trkpt>
      <trkpt lat="59.4280960461" lon="17.8280833706">
        <ele>34.6</ele>
        <time>2013-05-05T00:28:22Z</time>
      </trkpt>
      <trkpt lat="59.4283764207" lon="17.8279412136">
        <ele>34.6</ele>
        <time>2013-05-05T00:28:26Z</time>
      </trkpt>
      <trkpt lat="59.4285138839" lon="17.8278702189">
        <ele>34.2</ele>
        <time>2013-05-05T00:28:28Z</time>
      </trkpt>
      <trkpt lat="59.4285738144" lon="17.8278338414">
        <ele>33.6</ele>
        <time>2013-05-05T00:28:29Z</time>
      </trkpt>
      <trkpt lat="59.4286255308" lon="17.8278061812">
        <ele>33.2</ele>
        <time>2013-05-05T00:28:30Z</time>
      </trkpt>
      <trkpt lat="59.4286790073" lon="17.8277931892">
        <ele>32.4</ele>
        <time>2013-05-05T00:28:31Z</time>
      </trkpt>
      <trkpt lat="59.4287323162" lon="17.8278033313">
        <ele>32.4</ele>
        <time>2013-05-05T00:28:32Z</time>
      </trkpt>
      <trkpt lat="59.4288214158" lon="17.827927132">
        <ele>32</ele>
        <time>2013-05-05T00:28:34Z</time>
      </trkpt>
      <trkpt lat="59.4288496628" lon="17.8280101966">
        <ele>31.6</ele>
        <time>2013-05-05T00:28:35Z</time>
      </trkpt>
      <trkpt lat="59.4288763172" lon="17.8280922554">
        <ele>31.2</ele>
        <time>2013-05-05T00:28:36Z</time>
      </trkpt>
      <trkpt lat="59.4288985293" lon="17.8281705424">
        <ele>30.6</ele>
        <time>2013-05-05T00:28:37Z</time>
      </trkpt>
      <trkpt lat="59.4289271115" lon="17.8282501704">
        <ele>30.2</ele>
        <time>2013-05-05T00:28:38Z</time>
      </trkpt>
      <trkpt lat="59.4289872098" lon="17.828424011">
        <ele>30.2</ele>
        <time>2013-05-05T00:28:40Z</time>
      </trkpt>
      <trkpt lat="59.4290686818" lon="17.8287113425">
        <ele>30.2</ele>
        <time>2013-05-05T00:28:43Z</time>
      </trkpt>
      <trkpt lat="59.4291192247" lon="17.828938995">
        <ele>30.2</ele>
        <time>2013-05-05T00:28:45Z</time>
      </trkpt>
      <trkpt lat="59.4291846873" lon="17.8291420884">
        <ele>30.2</ele>
        <time>2013-05-05T00:28:47Z</time>
      </trkpt>
      <trkpt lat="59.4293150259" lon="17.8294812201">
        <ele>29.8</ele>
        <time>2013-05-05T00:28:50Z</time>
      </trkpt>
      <trkpt lat="59.4293574383" lon="17.8296149952">
        <ele>29.4</ele>
        <time>2013-05-05T00:28:51Z</time>
      </trkpt>
      <trkpt lat="59.4293949054" lon="17.8297465072">
        <ele>29</ele>
        <time>2013-05-05T00:28:52Z</time>
      </trkpt>
      <trkpt lat="59.4294326239" lon="17.8298836351">
        <ele>28.6</ele>
        <time>2013-05-05T00:28:53Z</time>
      </trkpt>
      <trkpt lat="59.4294707616" lon="17.830019841">
        <ele>28.2</ele>
        <time>2013-05-05T00:28:54Z</time>
      </trkpt>
      <trkpt lat="59.4295350507" lon="17.8302405364">
        <ele>28.2</ele>
        <time>2013-05-05T00:28:56Z</time>
      </trkpt>
      <trkpt lat="59.4296642158" lon="17.830537088">
        <ele>28.2</ele>
        <time>2013-05-05T00:29:00Z</time>
      </trkpt>
      <trkpt lat="59.4297443468" lon="17.8306745512">
        <ele>28.2</ele>
        <time>2013-05-05T00:29:02Z</time>
      </trkpt>
      <trkpt lat="59.4298297583" lon="17.8309387487">
        <ele>28.2</ele>
        <time>2013-05-05T00:29:05Z</time>
      </trkpt>
      <trkpt lat="59.4300043533" lon="17.8315227156">
        <ele>28.2</ele>
        <time>2013-05-05T00:29:12Z</time>
      </trkpt>
      <trkpt lat="59.4300614341" lon="17.8317258929">
        <ele>28.2</ele>
        <time>2013-05-05T00:29:15Z</time>
      </trkpt>
      <trkpt lat="59.4301471809" lon="17.8317917746">
        <ele>28.2</ele>
        <time>2013-05-05T00:29:17Z</time>
      </trkpt>
      <trkpt lat="59.4303765097" lon="17.8317313411">
        <ele>28.2</ele>
        <time>2013-05-05T00:29:21Z</time>
      </trkpt>
      <trkpt lat="59.4304348477" lon="17.8316952989">
        <ele>28.2</ele>
        <time>2013-05-05T00:29:22Z</time>
      </trkpt>
      <trkpt lat="59.4308414537" lon="17.831416517">
        <ele>28.2</ele>
        <time>2013-05-05T00:29:29Z</time>
      </trkpt>
      <trkpt lat="59.4312294518" lon="17.8309805743">
        <ele>28.2</ele>
        <time>2013-05-05T00:29:36Z</time>
      </trkpt>
      <trkpt lat="59.4315457009" lon="17.8304876348">
        <ele>28.2</ele>
        <time>2013-05-05T00:29:43Z</time>
      </trkpt>
      <trkpt lat="59.4318324457" lon="17.8300879858">
        <ele>28.2</ele>
        <time>2013-05-05T00:29:49Z</time>
      </trkpt>
      <trkpt lat="59.4319440088" lon="17.8299685437">
        <ele>28.2</ele>
        <time>2013-05-05T00:29:51Z</time>
      </trkpt>
      <trkpt lat="59.4321131555" lon="17.8297653665">
        <ele>28.2</ele>
        <time>2013-05-05T00:29:54Z</time>
      </trkpt>
      <trkpt lat="59.4324682128" lon="17.8293528094">
        <ele>28.2</ele>
        <time>2013-05-05T00:30:01Z</time>
      </trkpt>
      <trkpt lat="59.4326309055" lon="17.8291766218">
        <ele>28.6</ele>
        <time>2013-05-05T00:30:04Z</time>
      </trkpt>
      <trkpt lat="59.4326917581" lon="17.8291286773">
        <ele>29</ele>
        <time>2013-05-05T00:30:05Z</time>
      </trkpt>
      <trkpt lat="59.4327549576" lon="17.8290730215">
        <ele>29.4</ele>
        <time>2013-05-05T00:30:06Z</time>
      </trkpt>
      <trkpt lat="59.432811284" lon="17.8290231492">
        <ele>29.8</ele>
        <time>2013-05-05T00:30:07Z</time>
      </trkpt>
      <trkpt lat="59.4328695382" lon="17.8289722711">
        <ele>30.2</ele>
        <time>2013-05-05T00:30:08Z</time>
      </trkpt>
      <trkpt lat="59.4331292095" lon="17.8287387514">
        <ele>30.2</ele>
        <time>2013-05-05T00:30:13Z</time>
      </trkpt>
      <trkpt lat="59.4334063989" lon="17.8285818422">
        <ele>30.2</ele>
        <time>2013-05-05T00:30:18Z</time>
      </trkpt>
      <trkpt lat="59.4335055568" lon="17.8285592111">
        <ele>30.2</ele>
        <time>2013-05-05T00:30:20Z</time>
      </trkpt>
      <trkpt lat="59.4336975861" lon="17.8285329757">
        <ele>30.6</ele>
        <time>2013-05-05T00:30:24Z</time>
      </trkpt>
      <trkpt lat="59.433751817" lon="17.8285261026">
        <ele>31</ele>
        <time>2013-05-05T00:30:25Z</time>
      </trkpt>
      <trkpt lat="59.433809233" lon="17.8285232527">
        <ele>31.4</ele>
        <time>2013-05-05T00:30:26Z</time>
      </trkpt>
      <trkpt lat="59.4338692474" lon="17.8285215763">
        <ele>31.8</ele>
        <time>2013-05-05T00:30:27Z</time>
      </trkpt>
      <trkpt lat="59.4339227239" lon="17.8285250967">
        <ele>32.2</ele>
        <time>2013-05-05T00:30:28Z</time>
      </trkpt>
      <trkpt lat="59.4339720933" lon="17.8285085006">
        <ele>32.2</ele>
        <time>2013-05-05T00:30:29Z</time>
      </trkpt>
      <trkpt lat="59.4340694072" lon="17.8284813432">
        <ele>32.2</ele>
        <time>2013-05-05T00:30:31Z</time>
      </trkpt>
      <trkpt lat="59.4344321758" lon="17.8284648309">
        <ele>32.6</ele>
        <time>2013-05-05T00:30:37Z</time>
      </trkpt>
      <trkpt lat="59.4344865743" lon="17.8284525095">
        <ele>33</ele>
        <time>2013-05-05T00:30:38Z</time>
      </trkpt>
      <trkpt lat="59.4345382907" lon="17.8284349913">
        <ele>33.4</ele>
        <time>2013-05-05T00:30:39Z</time>
      </trkpt>
      <trkpt lat="59.4345867381" lon="17.8284227537">
        <ele>33.8</ele>
        <time>2013-05-05T00:30:40Z</time>
      </trkpt>
      <trkpt lat="59.4346309945" lon="17.8284121087">
        <ele>34.2</ele>
        <time>2013-05-05T00:30:41Z</time>
      </trkpt>
      <trkpt lat="59.4346712276" lon="17.8284046488">
        <ele>34.2</ele>
        <time>2013-05-05T00:30:42Z</time>
      </trkpt>
      <trkpt lat="59.434803494" lon="17.8284081692">
        <ele>34.2</ele>
        <time>2013-05-05T00:30:45Z</time>
      </trkpt>
      <trkpt lat="59.4349425497" lon="17.82849115">
        <ele>34.2</ele>
        <time>2013-05-05T00:30:48Z</time>
      </trkpt>
      <trkpt lat="59.4350519335" lon="17.8286975962">
        <ele>34.6</ele>
        <time>2013-05-05T00:30:51Z</time>
      </trkpt>
      <trkpt lat="59.4350999618" lon="17.8287580297">
        <ele>35</ele>
        <time>2013-05-05T00:30:52Z</time>
      </trkpt>
      <trkpt lat="59.4351439668" lon="17.8287934852">
        <ele>35.4</ele>
        <time>2013-05-05T00:30:53Z</time>
      </trkpt>
      <trkpt lat="59.4351953478" lon="17.8288109195">
        <ele>35.8</ele>
        <time>2013-05-05T00:30:54Z</time>
      </trkpt>
      <trkpt lat="59.4352489082" lon="17.8288008612">
        <ele>36.2</ele>
        <time>2013-05-05T00:30:55Z</time>
      </trkpt>
      <trkpt lat="59.4352999539" lon="17.8287689262">
        <ele>36.2</ele>
        <time>2013-05-05T00:30:56Z</time>
      </trkpt>
      <trkpt lat="59.4354156241" lon="17.8286874541">
        <ele>36.2</ele>
        <time>2013-05-05T00:30:58Z</time>
      </trkpt>
      <trkpt lat="59.4356089946" lon="17.82856248">
        <ele>36.2</ele>
        <time>2013-05-05T00:31:01Z</time>
      </trkpt>
      <trkpt lat="59.4357732798" lon="17.8283933333">
        <ele>36.6</ele>
        <time>2013-05-05T00:31:04Z</time>
      </trkpt>
      <trkpt lat="59.4358211405" lon="17.8283469814">
        <ele>37</ele>
        <time>2013-05-05T00:31:05Z</time>
      </trkpt>
      <trkpt lat="59.4358684982" lon="17.8283030602">
        <ele>37.6</ele>
        <time>2013-05-05T00:31:06Z</time>
      </trkpt>
      <trkpt lat="59.435915353" lon="17.8282522659">
        <ele>38</ele>
        <time>2013-05-05T00:31:07Z</time>
      </trkpt>
      <trkpt lat="59.4359594418" lon="17.8282006334">
        <ele>38.4</ele>
        <time>2013-05-05T00:31:08Z</time>
      </trkpt>
      <trkpt lat="59.4361432569" lon="17.828041964">
        <ele>38.4</ele>
        <time>2013-05-05T00:31:12Z</time>
      </trkpt>
      <trkpt lat="59.4362818935" lon="17.8278958675">
        <ele>38.8</ele>
        <time>2013-05-05T00:31:15Z</time>
      </trkpt>
      <trkpt lat="59.4363250603" lon="17.827842391">
        <ele>39.2</ele>
        <time>2013-05-05T00:31:16Z</time>
      </trkpt>
      <trkpt lat="59.4363673889" lon="17.8277931054">
        <ele>39.6</ele>
        <time>2013-05-05T00:31:17Z</time>
      </trkpt>
      <trkpt lat="59.4364123159" lon="17.8277502739">
        <ele>40</ele>
        <time>2013-05-05T00:31:18Z</time>
      </trkpt>
      <trkpt lat="59.4364593383" lon="17.8277098731">
        <ele>40.4</ele>
        <time>2013-05-05T00:31:19Z</time>
      </trkpt>
      <trkpt lat="59.4368434808" lon="17.8274602602">
        <ele>40.4</ele>
        <time>2013-05-05T00:31:27Z</time>
      </trkpt>
      <trkpt lat="59.4370428862" lon="17.8274528841">
        <ele>40.4</ele>
        <time>2013-05-05T00:31:31Z</time>
      </trkpt>
      <trkpt lat="59.4371352547" lon="17.8275094619">
        <ele>40.4</ele>
        <time>2013-05-05T00:31:33Z</time>
      </trkpt>
      <trkpt lat="59.4374615621" lon="17.8276921035">
        <ele>40.4</ele>
        <time>2013-05-05T00:31:40Z</time>
      </trkpt>
      <trkpt lat="59.4377128515" lon="17.8278677881">
        <ele>40.4</ele>
        <time>2013-05-05T00:31:46Z</time>
      </trkpt>
      <trkpt lat="59.4377930663" lon="17.8279060096">
        <ele>40.4</ele>
        <time>2013-05-05T00:31:48Z</time>
      </trkpt>
      <trkpt lat="59.4379064734" lon="17.827958145">
        <ele>40.4</ele>
        <time>2013-05-05T00:31:51Z</time>
      </trkpt>
      <trkpt lat="59.4380563417" lon="17.8280539501">
        <ele>40.4</ele>
        <time>2013-05-05T00:31:54Z</time>
      </trkpt>
      <trkpt lat="59.4381060464" lon="17.828072055">
        <ele>40.4</ele>
        <time>2013-05-05T00:31:55Z</time>
      </trkpt>
      <trkpt lat="59.438250718" lon="17.8279718075">
        <ele>40.4</ele>
        <time>2013-05-05T00:31:58Z</time>
      </trkpt>
      <trkpt lat="59.4383340341" lon="17.8276790277">
        <ele>40.4</ele>
        <time>2013-05-05T00:32:01Z</time>
      </trkpt>
      <trkpt lat="59.4383562461" lon="17.8275766009">
        <ele>40.4</ele>
        <time>2013-05-05T00:32:02Z</time>
      </trkpt>
      <trkpt lat="59.4384524703" lon="17.826972685">
        <ele>40.4</ele>
        <time>2013-05-05T00:32:08Z</time>
      </trkpt>
      <trkpt lat="59.438536457" lon="17.8267048833">
        <ele>40.4</ele>
        <time>2013-05-05T00:32:11Z</time>
      </trkpt>
      <trkpt lat="59.4386312563" lon="17.8266201423">
        <ele>40.4</ele>
        <time>2013-05-05T00:32:13Z</time>
      </trkpt>
      <trkpt lat="59.438799481" lon="17.8266405103">
        <ele>40.4</ele>
        <time>2013-05-05T00:32:16Z</time>
      </trkpt>
      <trkpt lat="59.4391350084" lon="17.8267051348">
        <ele>40.4</ele>
        <time>2013-05-05T00:32:21Z</time>
      </trkpt>
      <trkpt lat="59.4395212464" lon="17.8267480501">
        <ele>40.4</ele>
        <time>2013-05-05T00:32:27Z</time>
      </trkpt>
      <trkpt lat="59.4395873796" lon="17.8267454517">
        <ele>40.4</ele>
        <time>2013-05-05T00:32:28Z</time>
      </trkpt>
      <trkpt lat="59.4400612084" lon="17.8266599563">
        <ele>40.4</ele>
        <time>2013-05-05T00:32:35Z</time>
      </trkpt>
      <trkpt lat="59.4405580874" lon="17.8264443739">
        <ele>40.4</ele>
        <time>2013-05-05T00:32:43Z</time>
      </trkpt>
      <trkpt lat="59.4409218619" lon="17.8262380953">
        <ele>40.4</ele>
        <time>2013-05-05T00:32:49Z</time>
      </trkpt>
      <trkpt lat="59.4413621631" lon="17.8259565473">
        <ele>40.4</ele>
        <time>2013-05-05T00:32:57Z</time>
      </trkpt>
      <trkpt lat="59.4417097605" lon="17.825725123">
        <ele>40.4</ele>
        <time>2013-05-05T00:33:03Z</time>
      </trkpt>
      <trkpt lat="59.4418335612" lon="17.8256571458">
        <ele>41</ele>
        <time>2013-05-05T00:33:05Z</time>
      </trkpt>
      <trkpt lat="59.4418978503" lon="17.8256234506">
        <ele>41.4</ele>
        <time>2013-05-05T00:33:06Z</time>
      </trkpt>
      <trkpt lat="59.4419598764" lon="17.8255900906">
        <ele>41.8</ele>
        <time>2013-05-05T00:33:07Z</time>
      </trkpt>
      <trkpt lat="59.4420199746" lon="17.825561676">
        <ele>42.2</ele>
        <time>2013-05-05T00:33:08Z</time>
      </trkpt>
      <trkpt lat="59.4420798214" lon="17.8255379552">
        <ele>42.6</ele>
        <time>2013-05-05T00:33:09Z</time>
      </trkpt>
      <trkpt lat="59.4422525723" lon="17.8254526275">
        <ele>42.6</ele>
        <time>2013-05-05T00:33:12Z</time>
      </trkpt>
      <trkpt lat="59.4427472721" lon="17.8253031782">
        <ele>42.6</ele>
        <time>2013-05-05T00:33:20Z</time>
      </trkpt>
      <trkpt lat="59.4432568916" lon="17.8252283278">
        <ele>42.6</ele>
        <time>2013-05-05T00:33:28Z</time>
      </trkpt>
      <trkpt lat="59.4436261143" lon="17.8251937944">
        <ele>42.6</ele>
        <time>2013-05-05T00:33:35Z</time>
      </trkpt>
      <trkpt lat="59.4439799981" lon="17.825232854">
        <ele>42.6</ele>
        <time>2013-05-05T00:33:41Z</time>
      </trkpt>
      <trkpt lat="59.4444174495" lon="17.8253149128">
        <ele>42.6</ele>
        <time>2013-05-05T00:33:48Z</time>
      </trkpt>
      <trkpt lat="59.4449139932" lon="17.8254159986">
        <ele>42.6</ele>
        <time>2013-05-05T00:33:56Z</time>
      </trkpt>
      <trkpt lat="59.4453599941" lon="17.8255145697">
        <ele>42.6</ele>
        <time>2013-05-05T00:34:03Z</time>
      </trkpt>
      <trkpt lat="59.4457991219" lon="17.8255701417">
        <ele>42.6</ele>
        <time>2013-05-05T00:34:10Z</time>
      </trkpt>
      <trkpt lat="59.4458629081" lon="17.8255578203">
        <ele>42.6</ele>
        <time>2013-05-05T00:34:11Z</time>
      </trkpt>
      <trkpt lat="59.4461231661" lon="17.8255555572">
        <ele>42.6</ele>
        <time>2013-05-05T00:34:15Z</time>
      </trkpt>
      <trkpt lat="59.4465014413" lon="17.8254956266">
        <ele>42.6</ele>
        <time>2013-05-05T00:34:21Z</time>
      </trkpt>
      <trkpt lat="59.4469289182" lon="17.82539496">
        <ele>42.6</ele>
        <time>2013-05-05T00:34:28Z</time>
      </trkpt>
      <trkpt lat="59.4469912795" lon="17.8253651204">
        <ele>42.6</ele>
        <time>2013-05-05T00:34:29Z</time>
      </trkpt>
      <trkpt lat="59.4474518649" lon="17.8251409884">
        <ele>42.6</ele>
        <time>2013-05-05T00:34:36Z</time>
      </trkpt>
      <trkpt lat="59.4475118793" lon="17.8250954747">
        <ele>42.6</ele>
        <time>2013-05-05T00:34:37Z</time>
      </trkpt>
      <trkpt lat="59.4480352451" lon="17.8247010225">
        <ele>42.6</ele>
        <time>2013-05-05T00:34:46Z</time>
      </trkpt>
      <trkpt lat="59.4483728681" lon="17.8244709393">
        <ele>42.6</ele>
        <time>2013-05-05T00:34:52Z</time>
      </trkpt>
      <trkpt lat="59.4486504766" lon="17.8242888007">
        <ele>42.6</ele>
        <time>2013-05-05T00:34:58Z</time>
      </trkpt>
      <trkpt lat="59.448710491" lon="17.8240244355">
        <ele>42.6</ele>
        <time>2013-05-05T00:35:01Z</time>
      </trkpt>
      <trkpt lat="59.4487140952" lon="17.8239148003">
        <ele>42.6</ele>
        <time>2013-05-05T00:35:02Z</time>
      </trkpt>
      <trkpt lat="59.4486995945" lon="17.823781109">
        <ele>42.6</ele>
        <time>2013-05-05T00:35:03Z</time>
      </trkpt>
      <trkpt lat="59.4486720181" lon="17.823503249">
        <ele>42.6</ele>
        <time>2013-05-05T00:35:05Z</time>
      </trkpt>
      <trkpt lat="59.4486288513" lon="17.8226442719">
        <ele>42.6</ele>
        <time>2013-05-05T00:35:11Z</time>
      </trkpt>
      <trkpt lat="59.4486231516" lon="17.8214931017">
        <ele>42.6</ele>
        <time>2013-05-05T00:35:19Z</time>
      </trkpt>
      <trkpt lat="59.4486483811" lon="17.8205493836">
        <ele>42.6</ele>
        <time>2013-05-05T00:35:26Z</time>
      </trkpt>
      <trkpt lat="59.4487251593" lon="17.8195629178">
        <ele>42.2</ele>
        <time>2013-05-05T00:35:33Z</time>
      </trkpt>
      <trkpt lat="59.4487351338" lon="17.8194288074">
        <ele>41.8</ele>
        <time>2013-05-05T00:35:34Z</time>
      </trkpt>
      <trkpt lat="59.4487505565" lon="17.8192957866">
        <ele>41.2</ele>
        <time>2013-05-05T00:35:35Z</time>
      </trkpt>
      <trkpt lat="59.4487710083" lon="17.8191600837">
        <ele>40.8</ele>
        <time>2013-05-05T00:35:36Z</time>
      </trkpt>
      <trkpt lat="59.4487885265" lon="17.8190312539">
        <ele>40.4</ele>
        <time>2013-05-05T00:35:37Z</time>
      </trkpt>
      <trkpt lat="59.4488394046" lon="17.8186491231">
        <ele>40.4</ele>
        <time>2013-05-05T00:35:40Z</time>
      </trkpt>
      <trkpt lat="59.4489187812" lon="17.8181498971">
        <ele>40</ele>
        <time>2013-05-05T00:35:44Z</time>
      </trkpt>
      <trkpt lat="59.4489404065" lon="17.8180328858">
        <ele>39.4</ele>
        <time>2013-05-05T00:35:45Z</time>
      </trkpt>
      <trkpt lat="59.4489616966" lon="17.8179073249">
        <ele>39</ele>
        <time>2013-05-05T00:35:46Z</time>
      </trkpt>
      <trkpt lat="59.4489808911" lon="17.8177768187">
        <ele>38.6</ele>
        <time>2013-05-05T00:35:47Z</time>
      </trkpt>
      <trkpt lat="59.448993883" lon="17.8176462287">
        <ele>38</ele>
        <time>2013-05-05T00:35:48Z</time>
      </trkpt>
      <trkpt lat="59.4490510476" lon="17.8172621701">
        <ele>38</ele>
        <time>2013-05-05T00:35:51Z</time>
      </trkpt>
      <trkpt lat="59.4491224614" lon="17.8169981402">
        <ele>38</ele>
        <time>2013-05-05T00:35:53Z</time>
      </trkpt>
      <trkpt lat="59.4493195199" lon="17.8162032008">
        <ele>38</ele>
        <time>2013-05-05T00:35:58Z</time>
      </trkpt>
      <trkpt lat="59.4495540454" lon="17.8154780826">
        <ele>38</ele>
        <time>2013-05-05T00:36:03Z</time>
      </trkpt>
      <trkpt lat="59.449637613" lon="17.8152013123">
        <ele>37.6</ele>
        <time>2013-05-05T00:36:05Z</time>
      </trkpt>
      <trkpt lat="59.4496780975" lon="17.8150647712">
        <ele>37.2</ele>
        <time>2013-05-05T00:36:06Z</time>
      </trkpt>
      <trkpt lat="59.4497206776" lon="17.8149298226">
        <ele>36.8</ele>
        <time>2013-05-05T00:36:07Z</time>
      </trkpt>
      <trkpt lat="59.4497607431" lon="17.8148022501">
        <ele>36.4</ele>
        <time>2013-05-05T00:36:08Z</time>
      </trkpt>
      <trkpt lat="59.4497988807" lon="17.8146757672">
        <ele>35.8</ele>
        <time>2013-05-05T00:36:09Z</time>
      </trkpt>
      <trkpt lat="59.4498397844" lon="17.8145464345">
        <ele>35.8</ele>
        <time>2013-05-05T00:36:10Z</time>
      </trkpt>
      <trkpt lat="59.4501600568" lon="17.8136156245">
        <ele>35.8</ele>
        <time>2013-05-05T00:36:17Z</time>
      </trkpt>
      <trkpt lat="59.4502089233" lon="17.8134777422">
        <ele>35.8</ele>
        <time>2013-05-05T00:36:18Z</time>
      </trkpt>
      <trkpt lat="59.4504038863" lon="17.812928141">
        <ele>35.4</ele>
        <time>2013-05-05T00:36:22Z</time>
      </trkpt>
      <trkpt lat="59.4504517469" lon="17.8127990598">
        <ele>35</ele>
        <time>2013-05-05T00:36:23Z</time>
      </trkpt>
      <trkpt lat="59.4504983503" lon="17.8126762649">
        <ele>34.6</ele>
        <time>2013-05-05T00:36:24Z</time>
      </trkpt>
      <trkpt lat="59.4505445345" lon="17.8125522128">
        <ele>34.2</ele>
        <time>2013-05-05T00:36:25Z</time>
      </trkpt>
      <trkpt lat="59.4505894615" lon="17.8124324355">
        <ele>33.8</ele>
        <time>2013-05-05T00:36:26Z</time>
      </trkpt>
      <trkpt lat="59.4508647231" lon="17.8117530825">
        <ele>33.8</ele>
        <time>2013-05-05T00:36:32Z</time>
      </trkpt>
      <trkpt lat="59.4512388073" lon="17.8108468314">
        <ele>33.8</ele>
        <time>2013-05-05T00:36:40Z</time>
      </trkpt>
      <trkpt lat="59.4515609237" lon="17.8101221324">
        <ele>33.8</ele>
        <time>2013-05-05T00:36:47Z</time>
      </trkpt>
      <trkpt lat="59.4516620933" lon="17.8099129201">
        <ele>33.4</ele>
        <time>2013-05-05T00:36:49Z</time>
      </trkpt>
      <trkpt lat="59.4517123009" lon="17.8097990939">
        <ele>33</ele>
        <time>2013-05-05T00:36:50Z</time>
      </trkpt>
      <trkpt lat="59.4517635981" lon="17.8096861059">
        <ele>32.6</ele>
        <time>2013-05-05T00:36:51Z</time>
      </trkpt>
      <trkpt lat="59.4518191701" lon="17.8095741237">
        <ele>32</ele>
        <time>2013-05-05T00:36:52Z</time>
      </trkpt>
      <trkpt lat="59.451874323" lon="17.8094696015">
        <ele>31.6</ele>
        <time>2013-05-05T00:36:53Z</time>
      </trkpt>
      <trkpt lat="59.4522337389" lon="17.8087967863">
        <ele>31.6</ele>
        <time>2013-05-05T00:37:00Z</time>
      </trkpt>
      <trkpt lat="59.4525126047" lon="17.8083142404">
        <ele>31.6</ele>
        <time>2013-05-05T00:37:06Z</time>
      </trkpt>
      <trkpt lat="59.4525557715" lon="17.8082323492">
        <ele>31.2</ele>
        <time>2013-05-05T00:37:07Z</time>
      </trkpt>
      <trkpt lat="59.4525972619" lon="17.8081571635">
        <ele>30.8</ele>
        <time>2013-05-05T00:37:08Z</time>
      </trkpt>
      <trkpt lat="59.4526387523" lon="17.8080886834">
        <ele>30.4</ele>
        <time>2013-05-05T00:37:09Z</time>
      </trkpt>
      <trkpt lat="59.4526817514" lon="17.8080176887">
        <ele>29.6</ele>
        <time>2013-05-05T00:37:10Z</time>
      </trkpt>
      <trkpt lat="59.4527711863" lon="17.8078636294">
        <ele>29.6</ele>
        <time>2013-05-05T00:37:12Z</time>
      </trkpt>
      <trkpt lat="59.4530528181" lon="17.8073370785">
        <ele>29.6</ele>
        <time>2013-05-05T00:37:19Z</time>
      </trkpt>
      <trkpt lat="59.4531138384" lon="17.807209003">
        <ele>29.6</ele>
        <time>2013-05-05T00:37:21Z</time>
      </trkpt>
      <trkpt lat="59.453234873" lon="17.8070095138">
        <ele>29.6</ele>
        <time>2013-05-05T00:37:25Z</time>
      </trkpt>
      <trkpt lat="59.4533870045" lon="17.8067919197">
        <ele>29.6</ele>
        <time>2013-05-05T00:37:29Z</time>
      </trkpt>
      <trkpt lat="59.4534241363" lon="17.8067188295">
        <ele>29.6</ele>
        <time>2013-05-05T00:37:30Z</time>
      </trkpt>
      <trkpt lat="59.4535470988" lon="17.8064796101">
        <ele>29.6</ele>
        <time>2013-05-05T00:37:33Z</time>
      </trkpt>
      <trkpt lat="59.4536389644" lon="17.8063329268">
        <ele>29.6</ele>
        <time>2013-05-05T00:37:35Z</time>
      </trkpt>
      <trkpt lat="59.4538573967" lon="17.8059671407">
        <ele>30</ele>
        <time>2013-05-05T00:37:40Z</time>
      </trkpt>
      <trkpt lat="59.4539029104" lon="17.8058937991">
        <ele>30.4</ele>
        <time>2013-05-05T00:37:41Z</time>
      </trkpt>
      <trkpt lat="59.4539542076" lon="17.8058259895">
        <ele>30.8</ele>
        <time>2013-05-05T00:37:42Z</time>
      </trkpt>
      <trkpt lat="59.4540099473" lon="17.8057679868">
        <ele>31.2</ele>
        <time>2013-05-05T00:37:43Z</time>
      </trkpt>
      <trkpt lat="59.4540677824" lon="17.8057021889">
        <ele>31.6</ele>
        <time>2013-05-05T00:37:44Z</time>
      </trkpt>
      <trkpt lat="59.4541242764" lon="17.8056240695">
        <ele>31.6</ele>
        <time>2013-05-05T00:37:45Z</time>
      </trkpt>
      <trkpt lat="59.4541828659" lon="17.8055369816">
        <ele>31.6</ele>
        <time>2013-05-05T00:37:46Z</time>
      </trkpt>
      <trkpt lat="59.4544610611" lon="17.8051051461">
        <ele>31.6</ele>
        <time>2013-05-05T00:37:51Z</time>
      </trkpt>
      <trkpt lat="59.4545560281" lon="17.8049402741">
        <ele>31.6</ele>
        <time>2013-05-05T00:37:53Z</time>
      </trkpt>
      <trkpt lat="59.4547133563" lon="17.8047230991">
        <ele>31.6</ele>
        <time>2013-05-05T00:37:56Z</time>
      </trkpt>
      <trkpt lat="59.4547750471" lon="17.8046744841">
        <ele>31.6</ele>
        <time>2013-05-05T00:37:57Z</time>
      </trkpt>
      <trkpt lat="59.4548354806" lon="17.8046271264">
        <ele>31.6</ele>
        <time>2013-05-05T00:37:58Z</time>
      </trkpt>
      <trkpt lat="59.4549351414" lon="17.804466613">
        <ele>31.6</ele>
        <time>2013-05-05T00:38:00Z</time>
      </trkpt>
      <trkpt lat="59.4551104908" lon="17.8043175828">
        <ele>31.6</ele>
        <time>2013-05-05T00:38:03Z</time>
      </trkpt>
      <trkpt lat="59.4552130014" lon="17.8043178343">
        <ele>31.6</ele>
        <time>2013-05-05T00:38:05Z</time>
      </trkpt>
      <trkpt lat="59.4552611973" lon="17.8043291498">
        <ele>31.6</ele>
        <time>2013-05-05T00:38:06Z</time>
      </trkpt>
      <trkpt lat="59.4553107343" lon="17.8043509428">
        <ele>31.6</ele>
        <time>2013-05-05T00:38:07Z</time>
      </trkpt>
      <trkpt lat="59.4554632849" lon="17.8044382822">
        <ele>31.6</ele>
        <time>2013-05-05T00:38:10Z</time>
      </trkpt>
      <trkpt lat="59.4556001614" lon="17.8045521084">
        <ele>31.6</ele>
        <time>2013-05-05T00:38:13Z</time>
      </trkpt>
      <trkpt lat="59.4556439987" lon="17.804596281">
        <ele>32</ele>
        <time>2013-05-05T00:38:14Z</time>
      </trkpt>
      <trkpt lat="59.4556900153" lon="17.8046440578">
        <ele>32.4</ele>
        <time>2013-05-05T00:38:15Z</time>
      </trkpt>
      <trkpt lat="59.4557413964" lon="17.8046911641">
        <ele>32.8</ele>
        <time>2013-05-05T00:38:16Z</time>
      </trkpt>
      <trkpt lat="59.4557972198" lon="17.8047401144">
        <ele>33.4</ele>
        <time>2013-05-05T00:38:17Z</time>
      </trkpt>
      <trkpt lat="59.4558535462" lon="17.8047942615">
        <ele>33.8</ele>
        <time>2013-05-05T00:38:18Z</time>
      </trkpt>
      <trkpt lat="59.4561818652" lon="17.805050999">
        <ele>33.8</ele>
        <time>2013-05-05T00:38:24Z</time>
      </trkpt>
      <trkpt lat="59.4563447255" lon="17.8051831816">
        <ele>33.8</ele>
        <time>2013-05-05T00:38:27Z</time>
      </trkpt>
      <trkpt lat="59.4565060771" lon="17.8053040486">
        <ele>33.8</ele>
        <time>2013-05-05T00:38:30Z</time>
      </trkpt>
      <trkpt lat="59.4568343961" lon="17.8055756222">
        <ele>34.2</ele>
        <time>2013-05-05T00:38:36Z</time>
      </trkpt>
      <trkpt lat="59.4568933209" lon="17.8055980857">
        <ele>34.6</ele>
        <time>2013-05-05T00:38:37Z</time>
      </trkpt>
      <trkpt lat="59.456958113" lon="17.8055971637">
        <ele>35</ele>
        <time>2013-05-05T00:38:38Z</time>
      </trkpt>
      <trkpt lat="59.4570197199" lon="17.8055657315">
        <ele>35.4</ele>
        <time>2013-05-05T00:38:39Z</time>
      </trkpt>
      <trkpt lat="59.4570794829" lon="17.8055052142">
        <ele>35.8</ele>
        <time>2013-05-05T00:38:40Z</time>
      </trkpt>
      <trkpt lat="59.4571793113" lon="17.805358028">
        <ele>35.8</ele>
        <time>2013-05-05T00:38:42Z</time>
      </trkpt>
      <trkpt lat="59.4572253279" lon="17.8052805793">
        <ele>35.8</ele>
        <time>2013-05-05T00:38:43Z</time>
      </trkpt>
      <trkpt lat="59.4573124997" lon="17.8051157911">
        <ele>35.8</ele>
        <time>2013-05-05T00:38:45Z</time>
      </trkpt>
      <trkpt lat="59.45735684" lon="17.8050346543">
        <ele>35.8</ele>
        <time>2013-05-05T00:38:46Z</time>
      </trkpt>
      <trkpt lat="59.4576113983" lon="17.8046853806">
        <ele>35.8</ele>
        <time>2013-05-05T00:38:51Z</time>
      </trkpt>
      <trkpt lat="59.45791717" lon="17.8044361029">
        <ele>35.8</ele>
        <time>2013-05-05T00:38:56Z</time>
      </trkpt>
      <trkpt lat="59.4579853148" lon="17.8044102028">
        <ele>35.8</ele>
        <time>2013-05-05T00:38:57Z</time>
      </trkpt>
      <trkpt lat="59.4581943594" lon="17.8043842189">
        <ele>35.8</ele>
        <time>2013-05-05T00:39:00Z</time>
      </trkpt>
      <trkpt lat="59.4583257876" lon="17.8043845542">
        <ele>35.8</ele>
        <time>2013-05-05T00:39:02Z</time>
      </trkpt>
      <trkpt lat="59.4586772407" lon="17.8044185847">
        <ele>35.8</ele>
        <time>2013-05-05T00:39:08Z</time>
      </trkpt>
      <trkpt lat="59.4588235048" lon="17.8043607496">
        <ele>35.8</ele>
        <time>2013-05-05T00:39:11Z</time>
      </trkpt>
      <trkpt lat="59.4588934937" lon="17.804280451">
        <ele>35.8</ele>
        <time>2013-05-05T00:39:13Z</time>
      </trkpt>
      <trkpt lat="59.4589353194" lon="17.8042025831">
        <ele>35.8</ele>
        <time>2013-05-05T00:39:16Z</time>
      </trkpt>
      <trkpt lat="59.4589480599" lon="17.8041781918">
        <ele>35.8</ele>
        <time>2013-05-05T00:39:21Z</time>
      </trkpt>
      <trkpt lat="59.4589480599" lon="17.8041781918">
        <ele>35.8</ele>
        <time>2013-05-05T00:39:23Z</time>
      </trkpt>
    </trkseg>
  </trk>
</gpx>